Observation data for Canadian on 07/11/2018      Previous  Date       Current Mesonet Observations  Soil Data  Daily Summary Page  Observations in Plain Language
KCA1 110500Z 11008KT 23/19 A301 RMK A01 T02310191  RH  078%=      5-min Rain = 0
KCA1 110501Z 10008KT 23/19 A301 RMK A01 T02320191  RH  078%=      5-min Rain = 0
KCA1 110502Z 10009KT 23/19 A301 RMK A01 T02310191  RH  078%=      5-min Rain = 0
KCA1 110503Z 10009KT 23/19 A301 RMK A01 T02300191  RH  079%=      5-min Rain = 0
KCA1 110504Z 11009KT 23/19 A301 RMK A01 T02300191  RH  079%=      5-min Rain = 0
KCA1 110505Z 11009KT 23/19 A301 RMK A01 T02300191  RH  078%=      5-min Rain = 0
KCA1 110506Z 11010KT 23/19 A301 RMK A01 T02310190  RH  078%=      5-min Rain = 0
KCA1 110507Z 12009KT 23/19 A301 RMK A01 T02310191  RH  078%=      5-min Rain = 0
KCA1 110508Z 12009KT 23/19 A301 RMK A01 T02310190  RH  078%=      5-min Rain = 0
KCA1 110509Z 12009KT 23/19 A301 RMK A01 T02310190  RH  078%=      5-min Rain = 0
KCA1 110510Z 12009KT 23/19 A301 RMK A01 T02310190  RH  078%=      5-min Rain = 0
KCA1 110511Z 12010KT 23/19 A301 RMK A01 T02320191  RH  078%=      5-min Rain = 0
KCA1 110512Z 12010KT 23/19 A301 RMK A01 T02310191  RH  078%=      5-min Rain = 0
KCA1 110513Z 13010KT 23/19 A301 RMK A01 T02320191  RH  078%=      5-min Rain = 0
KCA1 110514Z 13008KT 23/19 A301 RMK A01 T02320191  RH  077%=      5-min Rain = 0
KCA1 110515Z 13008KT 23/19 A301 RMK A01 T02330191  RH  078%=      5-min Rain = 0
KCA1 110516Z 13008KT 23/19 A301 RMK A01 T02320191  RH  078%=      5-min Rain = 0
KCA1 110517Z 13007KT 23/19 A301 RMK A01 T02320192  RH  078%=      5-min Rain = 0
KCA1 110518Z 13008KT 23/19 A301 RMK A01 T02320192  RH  078%=      5-min Rain = 0
KCA1 110519Z 13009KT 23/19 A301 RMK A01 T02320192  RH  078%=      5-min Rain = 0
KCA1 110520Z 13008KT 23/19 A301 RMK A01 T02320192  RH  078%=      5-min Rain = 0
KCA1 110521Z 13009KT 23/19 A301 RMK A01 T02310192  RH  078%=      5-min Rain = 0
KCA1 110522Z 13009KT 23/19 A301 RMK A01 T02310192  RH  079%=      5-min Rain = 0
KCA1 110523Z 12009KT 23/19 A301 RMK A01 T02310192  RH  079%=      5-min Rain = 0
KCA1 110524Z 12009KT 23/19 A301 RMK A01 T02300192  RH  079%=      5-min Rain = 0
KCA1 110525Z 12009KT 23/19 A301 RMK A01 T02300192  RH  079%=      5-min Rain = 0
KCA1 110526Z 12009KT 23/19 A301 RMK A01 T02290193  RH  080%=      5-min Rain = 0
KCA1 110527Z 12008KT 23/19 A301 RMK A01 T02280193  RH  080%=      5-min Rain = 0
KCA1 110528Z 12008KT 23/19 A301 RMK A01 T02270192  RH  081%=      5-min Rain = 0
KCA1 110529Z 12008KT 23/19 A301 RMK A01 T02270193  RH  081%=      5-min Rain = 0
KCA1 110530Z 12009KT 23/19 A301 RMK A01 T02260192  RH  081%=      5-min Rain = 0
KCA1 110531Z 13009KT 23/19 A301 RMK A01 T02260193  RH  082%=      5-min Rain = 0
KCA1 110532Z 13008KT 23/19 A301 RMK A01 T02250192  RH  082%=      5-min Rain = 0
KCA1 110533Z 13009KT 23/19 A301 RMK A01 T02250192  RH  082%=      5-min Rain = 0
KCA1 110534Z 13009KT 23/19 A301 RMK A01 T02250192  RH  082%=      5-min Rain = 0
KCA1 110535Z 14008KT 23/19 A301 RMK A01 T02250192  RH  082%=      5-min Rain = 0
KCA1 110536Z 14009KT 23/19 A301 RMK A01 T02250192  RH  082%=      5-min Rain = 0
KCA1 110537Z 14009KT 23/19 A301 RMK A01 T02250192  RH  082%=      5-min Rain = 0
KCA1 110538Z 14009KT 23/19 A301 RMK A01 T02250192  RH  082%=      5-min Rain = 0
KCA1 110539Z 14008KT 23/19 A301 RMK A01 T02260192  RH  081%=      5-min Rain = 0
KCA1 110540Z 15008KT 23/19 A301 RMK A01 T02260192  RH  081%=      5-min Rain = 0
KCA1 110541Z 14008KT 23/19 A301 RMK A01 T02270192  RH  081%=      5-min Rain = 0
KCA1 110542Z 14007KT 23/19 A301 RMK A01 T02260192  RH  081%=      5-min Rain = 0
KCA1 110543Z 14007KT 23/19 A301 RMK A01 T02260192  RH  081%=      5-min Rain = 0
KCA1 110544Z 14007KT 23/19 A301 RMK A01 T02260193  RH  081%=      5-min Rain = 0
KCA1 110545Z 14007KT 23/19 A301 RMK A01 T02260193  RH  081%=      5-min Rain = 0
KCA1 110546Z 14007KT 23/19 A301 RMK A01 T02260193  RH  082%=      5-min Rain = 0
KCA1 110547Z 14007KT 23/19 A301 RMK A01 T02260193  RH  082%=      5-min Rain = 0
KCA1 110548Z 14007KT 23/19 A301 RMK A01 T02260193  RH  082%=      5-min Rain = 0
KCA1 110549Z 14006KT 23/19 A301 RMK A01 T02260193  RH  082%=      5-min Rain = 0
KCA1 110550Z 14006KT 23/19 A301 RMK A01 T02260193  RH  082%=      5-min Rain = 0
KCA1 110551Z 14006KT 23/19 A301 RMK A01 T02250193  RH  082%=      5-min Rain = 0
KCA1 110552Z 13005KT 23/19 A301 RMK A01 T02250192  RH  082%=      5-min Rain = 0
KCA1 110553Z 13005KT 22/19 A301 RMK A01 T02240193  RH  082%=      5-min Rain = 0
KCA1 110554Z 13005KT 22/19 A301 RMK A01 T02240192  RH  082%=      5-min Rain = 0
KCA1 110555Z 14004KT 22/19 A301 RMK A01 T02230192  RH  083%=      5-min Rain = 0
KCA1 110556Z 14004KT 22/19 A301 RMK A01 T02230192  RH  083%=      5-min Rain = 0
KCA1 110557Z 14004KT 22/19 A301 RMK A01 T02230192  RH  083%=      5-min Rain = 0
KCA1 110558Z 14004KT 22/19 A301 RMK A01 T02220192  RH  083%=      5-min Rain = 0
KCA1 110559Z 13005KT 22/19 A301 RMK A01 T02230192  RH  083%=      5-min Rain = 0
KCA1 110600Z 13005KT 22/19 A301 RMK A01 T02230193  RH  083%=      5-min Rain = 0
KCA1 110601Z 12005KT 22/19 A301 RMK A01 T02220192  RH  083%=      5-min Rain = 0
KCA1 110602Z 11006KT 22/19 A301 RMK A01 T02220192  RH  083%=      5-min Rain = 0
KCA1 110603Z 11005KT 22/19 A301 RMK A01 T02210193  RH  084%=      5-min Rain = 0
KCA1 110604Z 11005KT 22/19 A301 RMK A01 T02210193  RH  084%=      5-min Rain = 0
KCA1 110605Z 12005KT 22/19 A301 RMK A01 T02200193  RH  084%=      5-min Rain = 0
KCA1 110606Z 12005KT 22/19 A301 RMK A01 T02190193  RH  085%=      5-min Rain = 0
KCA1 110607Z 12005KT 22/19 A301 RMK A01 T02190193  RH  085%=      5-min Rain = 0
KCA1 110608Z 13006KT 22/19 A301 RMK A01 T02190193  RH  085%=      5-min Rain = 0
KCA1 110609Z 13006KT 22/19 A301 RMK A01 T02190193  RH  085%=      5-min Rain = 0
KCA1 110610Z 14006KT 22/19 A301 RMK A01 T02190192  RH  085%=      5-min Rain = 0
KCA1 110611Z 14006KT 22/19 A301 RMK A01 T02190192  RH  085%=      5-min Rain = 0
KCA1 110612Z 14006KT 22/19 A3009 RMK A01 T02190192  RH  085%=      5-min Rain = 0
KCA1 110613Z 15006KT 22/19 A3009 RMK A01 T02200192  RH  084%=      5-min Rain = 0
KCA1 110614Z 15006KT 22/19 A3009 RMK A01 T02200192  RH  084%=      5-min Rain = 0
KCA1 110615Z 15006KT 22/19 A3009 RMK A01 T02200192  RH  084%=      5-min Rain = 0
KCA1 110616Z 15006KT 22/19 A3009 RMK A01 T02200192  RH  084%=      5-min Rain = 0
KCA1 110617Z 15006KT 22/19 A3009 RMK A01 T02200192  RH  084%=      5-min Rain = 0
KCA1 110618Z 15006KT 22/19 A3009 RMK A01 T02200192  RH  084%=      5-min Rain = 0
KCA1 110619Z 14006KT 22/19 A3009 RMK A01 T02210192  RH  084%=      5-min Rain = 0
KCA1 110620Z 14007KT 22/19 A3009 RMK A01 T02210192  RH  084%=      5-min Rain = 0
KCA1 110621Z 14007KT 22/19 A3009 RMK A01 T02210192  RH  084%=      5-min Rain = 0
KCA1 110622Z 14006KT 22/19 A3009 RMK A01 T02210192  RH  084%=      5-min Rain = 0
KCA1 110623Z 15006KT 22/19 A3009 RMK A01 T02220192  RH  084%=      5-min Rain = 0
KCA1 110624Z 14007KT 22/19 A3009 RMK A01 T02210192  RH  084%=      5-min Rain = 0
KCA1 110625Z 15006KT 22/19 A3009 RMK A01 T02210192  RH  083%=      5-min Rain = 0
KCA1 110626Z 15006KT 22/19 A3009 RMK A01 T02210192  RH  083%=      5-min Rain = 0
KCA1 110627Z 15005KT 22/19 A3009 RMK A01 T02220192  RH  083%=      5-min Rain = 0
KCA1 110628Z 16006KT 22/19 A3009 RMK A01 T02210192  RH  083%=      5-min Rain = 0
KCA1 110629Z 15005KT 22/19 A3009 RMK A01 T02220192  RH  083%=      5-min Rain = 0
KCA1 110630Z 16005KT 22/19 A3009 RMK A01 T02220192  RH  083%=      5-min Rain = 0
KCA1 110631Z 16004KT 22/19 A3009 RMK A01 T02220192  RH  083%=      5-min Rain = 0
KCA1 110632Z 16004KT 22/19 A3009 RMK A01 T02230193  RH  083%=      5-min Rain = 0
KCA1 110633Z 17004KT 22/19 A3009 RMK A01 T02220192  RH  083%=      5-min Rain = 0
KCA1 110634Z 16004KT 22/19 A3009 RMK A01 T02210192  RH  083%=      5-min Rain = 0
KCA1 110635Z 16003KT 22/19 A3009 RMK A01 T02210191  RH  083%=      5-min Rain = 0
KCA1 110636Z 15002KT 22/19 A3009 RMK A01 T02210191  RH  083%=      5-min Rain = 0
KCA1 110637Z 14003KT 22/19 A3009 RMK A01 T02220192  RH  083%=      5-min Rain = 0
KCA1 110638Z 14003KT 22/19 A3009 RMK A01 T02220192  RH  083%=      5-min Rain = 0
KCA1 110639Z 15003KT 22/19 A3009 RMK A01 T02210192  RH  083%=      5-min Rain = 0
KCA1 110640Z 15003KT 22/19 A3009 RMK A01 T02210192  RH  083%=      5-min Rain = 0
KCA1 110641Z 16003KT 22/19 A3009 RMK A01 T02210192  RH  084%=      5-min Rain = 0
KCA1 110642Z 17002KT 22/19 A3009 RMK A01 T02210191  RH  083%=      5-min Rain = 0
KCA1 110643Z 18003KT 22/19 A3009 RMK A01 T02210191  RH  083%=      5-min Rain = 0
KCA1 110644Z 18003KT 22/19 A3009 RMK A01 T02210191  RH  083%=      5-min Rain = 0
KCA1 110645Z 19004KT 22/19 A3009 RMK A01 T02220191  RH  083%=      5-min Rain = 0
KCA1 110646Z 19003KT 22/19 A3009 RMK A01 T02210191  RH  083%=      5-min Rain = 0
KCA1 110647Z 18004KT 22/19 A3009 RMK A01 T02200191  RH  083%=      5-min Rain = 0
KCA1 110648Z 19003KT 22/19 A3009 RMK A01 T02200191  RH  084%=      5-min Rain = 0
KCA1 110649Z 19004KT 22/19 A3009 RMK A01 T02190191  RH  084%=      5-min Rain = 0
KCA1 110650Z 18005KT 22/19 A3008 RMK A01 T02190190  RH  084%=      5-min Rain = 0
KCA1 110651Z 18006KT 22/19 A3008 RMK A01 T02200190  RH  083%=      5-min Rain = 0
KCA1 110652Z 19005KT 22/19 A3008 RMK A01 T02210191  RH  083%=      5-min Rain = 0
KCA1 110653Z 19005KT 22/19 A3008 RMK A01 T02220191  RH  083%=      5-min Rain = 0
KCA1 110654Z 20004KT 22/19 A3008 RMK A01 T02220191  RH  083%=      5-min Rain = 0
KCA1 110655Z 20004KT 22/19 A3008 RMK A01 T02220191  RH  083%=      5-min Rain = 0
KCA1 110656Z 20006KT 22/19 A3008 RMK A01 T02210191  RH  083%=      5-min Rain = 0
KCA1 110657Z 21007KT 22/19 A3008 RMK A01 T02210191  RH  083%=      5-min Rain = 0
KCA1 110658Z 20006KT 22/19 A3008 RMK A01 T02220191  RH  083%=      5-min Rain = 0
KCA1 110659Z 20005KT 22/19 A3008 RMK A01 T02230191  RH  082%=      5-min Rain = 0
KCA1 110700Z 21006KT 22/19 A3008 RMK A01 T02230191  RH  082%=      5-min Rain = 0
KCA1 110701Z 20005KT 22/19 A3008 RMK A01 T02230191  RH  082%=      5-min Rain = 0
KCA1 110702Z 20006KT 22/19 A3008 RMK A01 T02230191  RH  082%=      5-min Rain = 0
KCA1 110703Z 22005KT 22/19 A3008 RMK A01 T02230191  RH  082%=      5-min Rain = 0
KCA1 110704Z 21005KT 22/19 A3008 RMK A01 T02230191  RH  082%=      5-min Rain = 0
KCA1 110705Z 21005KT 22/19 A3008 RMK A01 T02230191  RH  082%=      5-min Rain = 0
KCA1 110706Z 21004KT 22/19 A3008 RMK A01 T02240191  RH  082%=      5-min Rain = 0
KCA1 110707Z 21005KT 22/19 A3008 RMK A01 T02240191  RH  082%=      5-min Rain = 0
KCA1 110708Z 21006KT 22/19 A3008 RMK A01 T02240191  RH  082%=      5-min Rain = 0
KCA1 110709Z 20005KT 22/19 A3008 RMK A01 T02240191  RH  081%=      5-min Rain = 0
KCA1 110710Z 19005KT 22/19 A3008 RMK A01 T02240191  RH  081%=      5-min Rain = 0
KCA1 110711Z 19004KT 23/19 A3008 RMK A01 T02250191  RH  081%=      5-min Rain = 0
KCA1 110712Z 18005KT 23/19 A3008 RMK A01 T02260191  RH  081%=      5-min Rain = 0
KCA1 110713Z 18005KT 23/19 A3008 RMK A01 T02260191  RH  080%=      5-min Rain = 0
KCA1 110714Z 18005KT 23/19 A3008 RMK A01 T02270191  RH  080%=      5-min Rain = 0
KCA1 110715Z 17005KT 23/19 A3008 RMK A01 T02270191  RH  080%=      5-min Rain = 0
KCA1 110716Z 17006KT 23/19 A3008 RMK A01 T02270191  RH  080%=      5-min Rain = 0
KCA1 110717Z 16004KT 23/19 A3008 RMK A01 T02260191  RH  081%=      5-min Rain = 0
KCA1 110718Z 16004KT 23/19 A3008 RMK A01 T02260191  RH  081%=      5-min Rain = 0
KCA1 110719Z 16004KT 23/19 A3008 RMK A01 T02260191  RH  081%=      5-min Rain = 0
KCA1 110720Z 17004KT 23/19 A3008 RMK A01 T02250191  RH  081%=      5-min Rain = 0
KCA1 110721Z 16003KT 22/19 A3008 RMK A01 T02240191  RH  081%=      5-min Rain = 0
KCA1 110722Z 17003KT 22/19 A3008 RMK A01 T02240191  RH  082%=      5-min Rain = 0
KCA1 110723Z 17003KT 22/19 A3007 RMK A01 T02240191  RH  081%=      5-min Rain = 0
KCA1 110724Z 17004KT 22/19 A3007 RMK A01 T02240190  RH  081%=      5-min Rain = 0
KCA1 110725Z 18003KT 22/19 A3007 RMK A01 T02230191  RH  082%=      5-min Rain = 0
KCA1 110726Z 18004KT 22/19 A3007 RMK A01 T02230190  RH  082%=      5-min Rain = 0
KCA1 110727Z 18003KT 22/19 A3007 RMK A01 T02230190  RH  082%=      5-min Rain = 0
KCA1 110728Z 28001KT 22/19 A3007 RMK A01 T02220190  RH  082%=      5-min Rain = 0
KCA1 110729Z 21003KT 22/19 A3007 RMK A01 T02220190  RH  082%=      5-min Rain = 0
KCA1 110730Z 22004KT 22/19 A3007 RMK A01 T02210190  RH  082%=      5-min Rain = 0
KCA1 110731Z 22005KT 22/19 A3007 RMK A01 T02210190  RH  082%=      5-min Rain = 0
KCA1 110732Z 20007KT 22/19 A3007 RMK A01 T02210188  RH  082%=      5-min Rain = 0
KCA1 110733Z 22007KT 23/19 A3007 RMK A01 T02260189  RH  080%=      5-min Rain = 0
KCA1 110734Z 22006KT 23/19 A3007 RMK A01 T02280190  RH  079%=      5-min Rain = 0
KCA1 110735Z 22005KT 23/19 A3007 RMK A01 T02280189  RH  079%=      5-min Rain = 0
KCA1 110736Z 23005KT 23/19 A3007 RMK A01 T02280190  RH  079%=      5-min Rain = 0
KCA1 110737Z 22005KT 23/19 A3007 RMK A01 T02280190  RH  079%=      5-min Rain = 0
KCA1 110738Z 22005KT 23/19 A3007 RMK A01 T02270190  RH  080%=      5-min Rain = 0
KCA1 110739Z 22003KT 23/19 A3007 RMK A01 T02260189  RH  080%=      5-min Rain = 0
KCA1 110740Z 23004KT 23/19 A3007 RMK A01 T02250189  RH  080%=      5-min Rain = 0
KCA1 110741Z 23004KT 22/19 A3007 RMK A01 T02240189  RH  081%=      5-min Rain = 0
KCA1 110742Z 21004KT 22/19 A3007 RMK A01 T02230189  RH  081%=      5-min Rain = 0
KCA1 110743Z 21005KT 22/19 A3007 RMK A01 T02220189  RH  082%=      5-min Rain = 0
KCA1 110744Z 21005KT 22/19 A3007 RMK A01 T02210188  RH  082%=      5-min Rain = 0
KCA1 110745Z 21006KT 22/19 A3007 RMK A01 T02220188  RH  081%=      5-min Rain = 0
KCA1 110746Z 20004KT 22/19 A3007 RMK A01 T02230189  RH  081%=      5-min Rain = 0
KCA1 110747Z 21005KT 22/19 A3007 RMK A01 T02230189  RH  081%=      5-min Rain = 0
KCA1 110748Z 20004KT 22/19 A3007 RMK A01 T02230189  RH  081%=      5-min Rain = 0
KCA1 110749Z 21006KT 22/19 A3007 RMK A01 T02220189  RH  081%=      5-min Rain = 0
KCA1 110750Z 21004KT 22/19 A3007 RMK A01 T02220188  RH  081%=      5-min Rain = 0
KCA1 110751Z 21003KT 22/19 A3007 RMK A01 T02230189  RH  081%=      5-min Rain = 0
KCA1 110752Z 21003KT 22/19 A3007 RMK A01 T02220189  RH  081%=      5-min Rain = 0
KCA1 110753Z 21003KT 22/19 A3007 RMK A01 T02210189  RH  082%=      5-min Rain = 0
KCA1 110754Z 21002KT 22/19 A3007 RMK A01 T02210188  RH  082%=      5-min Rain = 0
KCA1 110755Z 19003KT 22/19 A3007 RMK A01 T02200188  RH  082%=      5-min Rain = 0
KCA1 110756Z 19002KT 22/19 A3007 RMK A01 T02200188  RH  082%=      5-min Rain = 0
KCA1 110757Z 17002KT 22/19 A3007 RMK A01 T02200188  RH  082%=      5-min Rain = 0
KCA1 110758Z 17003KT 22/19 A3007 RMK A01 T02200188  RH  082%=      5-min Rain = 0
KCA1 110759Z 16002KT 22/19 A3007 RMK A01 T02200188  RH  082%=      5-min Rain = 0
KCA1 110800Z 15003KT 22/19 A3007 RMK A01 T02200188  RH  082%=      5-min Rain = 0
KCA1 110801Z 13003KT 22/19 A3007 RMK A01 T02200187  RH  082%=      5-min Rain = 0
KCA1 110802Z 13002KT 22/19 A3007 RMK A01 T02200188  RH  082%=      5-min Rain = 0
KCA1 110803Z 12003KT 22/19 A3007 RMK A01 T02210188  RH  082%=      5-min Rain = 0
KCA1 110804Z 13003KT 22/19 A3007 RMK A01 T02200188  RH  082%=      5-min Rain = 0
KCA1 110805Z 14004KT 22/19 A3007 RMK A01 T02190188  RH  083%=      5-min Rain = 0
KCA1 110806Z 13003KT 22/19 A3007 RMK A01 T02180188  RH  083%=      5-min Rain = 0
KCA1 110807Z 14002KT 22/19 A3007 RMK A01 T02180188  RH  083%=      5-min Rain = 0
KCA1 110808Z 15003KT 22/19 A3007 RMK A01 T02190188  RH  083%=      5-min Rain = 0
KCA1 110809Z 15003KT 22/19 A3007 RMK A01 T02190188  RH  083%=      5-min Rain = 0
KCA1 110810Z 17002KT 22/19 A3007 RMK A01 T02190188  RH  083%=      5-min Rain = 0
KCA1 110811Z 17003KT 22/19 A3007 RMK A01 T02190187  RH  082%=      5-min Rain = 0
KCA1 110812Z 17002KT 22/19 A3007 RMK A01 T02200187  RH  082%=      5-min Rain = 0
KCA1 110813Z 18002KT 22/19 A3007 RMK A01 T02200187  RH  082%=      5-min Rain = 0
KCA1 110814Z 19001KT 22/19 A3007 RMK A01 T02200188  RH  082%=      5-min Rain = 0
KCA1 110815Z 00000KT 22/19 A3007 RMK A01 T02200187  RH  082%=      5-min Rain = 0
KCA1 110816Z 22000KT 22/19 A3007 RMK A01 T02210187  RH  081%=      5-min Rain = 0
KCA1 110817Z 19001KT 22/19 A3007 RMK A01 T02200187  RH  081%=      5-min Rain = 0
KCA1 110818Z 17002KT 22/19 A3007 RMK A01 T02210187  RH  081%=      5-min Rain = 0
KCA1 110819Z 17002KT 22/19 A3007 RMK A01 T02210187  RH  081%=      5-min Rain = 0
KCA1 110820Z 15003KT 22/19 A3007 RMK A01 T02210187  RH  081%=      5-min Rain = 0
KCA1 110821Z 15005KT 22/19 A3007 RMK A01 T02220187  RH  080%=      5-min Rain = 0
KCA1 110822Z 15005KT 22/19 A3007 RMK A01 T02200187  RH  081%=      5-min Rain = 0
KCA1 110823Z 16005KT 22/19 A3007 RMK A01 T02180187  RH  082%=      5-min Rain = 0
KCA1 110824Z 16006KT 22/19 A3007 RMK A01 T02170187  RH  083%=      5-min Rain = 0
KCA1 110825Z 16006KT 22/19 A3007 RMK A01 T02160187  RH  083%=      5-min Rain = 0
KCA1 110826Z 15006KT 22/19 A3007 RMK A01 T02150187  RH  084%=      5-min Rain = 0
KCA1 110827Z 16005KT 22/19 A3007 RMK A01 T02150187  RH  084%=      5-min Rain = 0
KCA1 110828Z 17005KT 22/19 A3007 RMK A01 T02150187  RH  084%=      5-min Rain = 0
KCA1 110829Z 16004KT 22/19 A3007 RMK A01 T02150187  RH  084%=      5-min Rain = 0
KCA1 110830Z 16005KT 22/19 A3007 RMK A01 T02150187  RH  084%=      5-min Rain = 0
KCA1 110831Z 15004KT 22/19 A3007 RMK A01 T02150186  RH  084%=      5-min Rain = 0
KCA1 110832Z 16003KT 22/19 A3007 RMK A01 T02150186  RH  084%=      5-min Rain = 0
KCA1 110833Z 15003KT 22/19 A3007 RMK A01 T02150186  RH  084%=      5-min Rain = 0
KCA1 110834Z 13001KT 22/19 A3007 RMK A01 T02150187  RH  084%=      5-min Rain = 0
KCA1 110835Z 01001KT 22/19 A3007 RMK A01 T02150187  RH  084%=      5-min Rain = 0
KCA1 110836Z 32002KT 22/19 A3007 RMK A01 T02150187  RH  084%=      5-min Rain = 0
KCA1 110837Z 33003KT 21/19 A3007 RMK A01 T02140187  RH  085%=      5-min Rain = 0
KCA1 110838Z 33004KT 21/19 A3007 RMK A01 T02130187  RH  085%=      5-min Rain = 0
KCA1 110839Z 31004KT 21/19 A3007 RMK A01 T02120187  RH  086%=      5-min Rain = 0
KCA1 110840Z 31002KT 21/19 A3007 RMK A01 T02130187  RH  085%=      5-min Rain = 0
KCA1 110841Z 30002KT 21/19 A3007 RMK A01 T02140187  RH  085%=      5-min Rain = 0
KCA1 110842Z 31002KT 22/19 A3007 RMK A01 T02150187  RH  084%=      5-min Rain = 0
KCA1 110843Z 32001KT 22/19 A3007 RMK A01 T02170187  RH  083%=      5-min Rain = 0
KCA1 110844Z 30000KT 22/19 A3007 RMK A01 T02180187  RH  083%=      5-min Rain = 0
KCA1 110845Z 00000KT 22/19 A3007 RMK A01 T02190187  RH  082%=      5-min Rain = 0
KCA1 110846Z 24001KT 22/19 A3007 RMK A01 T02190186  RH  082%=      5-min Rain = 0
KCA1 110847Z 19000KT 22/19 A3006 RMK A01 T02200186  RH  081%=      5-min Rain = 0
KCA1 110848Z 19002KT 22/19 A3006 RMK A01 T02210187  RH  081%=      5-min Rain = 0
KCA1 110849Z 17002KT 22/19 A3006 RMK A01 T02220186  RH  080%=      5-min Rain = 0
KCA1 110850Z 19002KT 22/19 A3006 RMK A01 T02230186  RH  080%=      5-min Rain = 0
KCA1 110851Z 19003KT 22/19 A3006 RMK A01 T02240187  RH  079%=      5-min Rain = 0
KCA1 110852Z 17003KT 22/19 A3006 RMK A01 T02230187  RH  080%=      5-min Rain = 0
KCA1 110853Z 19003KT 22/19 A3006 RMK A01 T02220186  RH  080%=      5-min Rain = 0
KCA1 110854Z 17004KT 22/19 A3006 RMK A01 T02220186  RH  080%=      5-min Rain = 0
KCA1 110855Z 17003KT 22/19 A3006 RMK A01 T02220187  RH  080%=      5-min Rain = 0
KCA1 110856Z 16003KT 22/19 A3006 RMK A01 T02210186  RH  080%=      5-min Rain = 0
KCA1 110857Z 15004KT 22/19 A3007 RMK A01 T02210186  RH  081%=      5-min Rain = 0
KCA1 110858Z 16004KT 22/19 A3007 RMK A01 T02190186  RH  082%=      5-min Rain = 0
KCA1 110859Z 18003KT 22/19 A3007 RMK A01 T02180186  RH  082%=      5-min Rain = 0
KCA1 110900Z 16003KT 22/19 A3007 RMK A01 T02180186  RH  082%=      5-min Rain = 0
KCA1 110901Z 16003KT 22/19 A3007 RMK A01 T02180186  RH  082%=      5-min Rain = 0
KCA1 110902Z 15003KT 22/19 A3007 RMK A01 T02180186  RH  082%=      5-min Rain = 0
KCA1 110903Z 14002KT 22/19 A3007 RMK A01 T02170186  RH  083%=      5-min Rain = 0
KCA1 110904Z 13003KT 22/19 A3007 RMK A01 T02170186  RH  083%=      5-min Rain = 0
KCA1 110905Z 14003KT 22/19 A3007 RMK A01 T02160187  RH  083%=      5-min Rain = 0
KCA1 110906Z 13003KT 22/19 A3007 RMK A01 T02160186  RH  084%=      5-min Rain = 0
KCA1 110907Z 11003KT 22/19 A3007 RMK A01 T02150186  RH  084%=      5-min Rain = 0
KCA1 110908Z 11003KT 21/19 A3007 RMK A01 T02140186  RH  084%=      5-min Rain = 0
KCA1 110909Z 11003KT 21/19 A3007 RMK A01 T02130186  RH  085%=      5-min Rain = 0
KCA1 110910Z 10004KT 21/19 A3007 RMK A01 T02110186  RH  086%=      5-min Rain = 0
KCA1 110911Z 10004KT 21/19 A3007 RMK A01 T02100186  RH  086%=      5-min Rain = 0
KCA1 110912Z 10004KT 21/19 A3007 RMK A01 T02090186  RH  087%=      5-min Rain = 0
KCA1 110913Z 10004KT 21/19 A3007 RMK A01 T02080186  RH  087%=      5-min Rain = 0
KCA1 110914Z 10004KT 21/19 A3007 RMK A01 T02080186  RH  087%=      5-min Rain = 0
KCA1 110915Z 10004KT 21/19 A3007 RMK A01 T02070186  RH  088%=      5-min Rain = 0
KCA1 110916Z 10005KT 21/19 A3007 RMK A01 T02070186  RH  088%=      5-min Rain = 0
KCA1 110917Z 10005KT 21/19 A3007 RMK A01 T02070186  RH  088%=      5-min Rain = 0
KCA1 110918Z 10005KT 21/19 A3007 RMK A01 T02070186  RH  088%=      5-min Rain = 0
KCA1 110919Z 10005KT 21/19 A3007 RMK A01 T02070187  RH  088%=      5-min Rain = 0
KCA1 110920Z 10005KT 21/19 A3007 RMK A01 T02070187  RH  088%=      5-min Rain = 0
KCA1 110921Z 10006KT 21/19 A3007 RMK A01 T02070186  RH  088%=      5-min Rain = 0
KCA1 110922Z 10006KT 21/19 A3007 RMK A01 T02090187  RH  087%=      5-min Rain = 0
KCA1 110923Z 10006KT 21/19 A3007 RMK A01 T02090186  RH  087%=      5-min Rain = 0
KCA1 110924Z 10006KT 21/19 A3007 RMK A01 T02090187  RH  087%=      5-min Rain = 0
KCA1 110925Z 09006KT 21/19 A3007 RMK A01 T02090187  RH  087%=      5-min Rain = 0
KCA1 110926Z 10006KT 21/19 A3007 RMK A01 T02090187  RH  087%=      5-min Rain = 0
KCA1 110927Z 10006KT 21/19 A3007 RMK A01 T02080187  RH  088%=      5-min Rain = 0
KCA1 110928Z 10006KT 21/19 A3007 RMK A01 T02080187  RH  088%=      5-min Rain = 0
KCA1 110929Z 11006KT 21/19 A3007 RMK A01 T02080187  RH  088%=      5-min Rain = 0
KCA1 110930Z 11007KT 21/19 A3007 RMK A01 T02070187  RH  088%=      5-min Rain = 0
KCA1 110931Z 11007KT 21/19 A3007 RMK A01 T02070186  RH  088%=      5-min Rain = 0
KCA1 110932Z 11007KT 21/19 A3006 RMK A01 T02080187  RH  088%=      5-min Rain = 0
KCA1 110933Z 11008KT 21/19 A3006 RMK A01 T02080187  RH  088%=      5-min Rain = 0
KCA1 110934Z 11008KT 21/19 A3006 RMK A01 T02080187  RH  087%=      5-min Rain = 0
KCA1 110935Z 10008KT 21/19 A3006 RMK A01 T02080187  RH  087%=      5-min Rain = 0
KCA1 110936Z 10008KT 21/19 A3006 RMK A01 T02080186  RH  087%=      5-min Rain = 0
KCA1 110937Z 10008KT 21/19 A3006 RMK A01 T02080187  RH  088%=      5-min Rain = 0
KCA1 110938Z 11008KT 21/19 A3007 RMK A01 T02080187  RH  088%=      5-min Rain = 0
KCA1 110939Z 10008KT 21/19 A3007 RMK A01 T02080187  RH  088%=      5-min Rain = 0
KCA1 110940Z 11008KT 21/19 A3006 RMK A01 T02080187  RH  088%=      5-min Rain = 0
KCA1 110941Z 11007KT 21/19 A3006 RMK A01 T02080187  RH  088%=      5-min Rain = 0
KCA1 110942Z 11007KT 21/19 A3006 RMK A01 T02080187  RH  088%=      5-min Rain = 0
KCA1 110943Z 11007KT 21/19 A3006 RMK A01 T02090188  RH  088%=      5-min Rain = 0
KCA1 110944Z 12008KT 21/19 A3006 RMK A01 T02090187  RH  087%=      5-min Rain = 0
KCA1 110945Z 12008KT 21/19 A3006 RMK A01 T02090187  RH  087%=      5-min Rain = 0
KCA1 110946Z 12007KT 21/19 A3006 RMK A01 T02100188  RH  087%=      5-min Rain = 0
KCA1 110947Z 12008KT 21/19 A3006 RMK A01 T02100188  RH  087%=      5-min Rain = 0
KCA1 110948Z 11007KT 21/19 A3006 RMK A01 T02100188  RH  087%=      5-min Rain = 0
KCA1 110949Z 12008KT 21/19 A3007 RMK A01 T02100188  RH  087%=      5-min Rain = 0
KCA1 110950Z 12008KT 21/19 A3007 RMK A01 T02100188  RH  087%=      5-min Rain = 0
KCA1 110951Z 12007KT 21/19 A3007 RMK A01 T02100187  RH  087%=      5-min Rain = 0
KCA1 110952Z 11007KT 21/19 A3007 RMK A01 T02110188  RH  087%=      5-min Rain = 0
KCA1 110953Z 12007KT 21/19 A3007 RMK A01 T02110188  RH  087%=      5-min Rain = 0
KCA1 110954Z 12008KT 21/19 A3007 RMK A01 T02100188  RH  087%=      5-min Rain = 0
KCA1 110955Z 11007KT 21/19 A3007 RMK A01 T02100188  RH  087%=      5-min Rain = 0
KCA1 110956Z 12006KT 21/19 A3007 RMK A01 T02100188  RH  087%=      5-min Rain = 0
KCA1 110957Z 11007KT 21/19 A3007 RMK A01 T02100188  RH  087%=      5-min Rain = 0
KCA1 110958Z 12006KT 21/19 A3007 RMK A01 T02090188  RH  088%=      5-min Rain = 0
KCA1 110959Z 11006KT 21/19 A3006 RMK A01 T02080188  RH  088%=      5-min Rain = 0
KCA1 111000Z 12006KT 21/19 A3006 RMK A01 T02080188  RH  088%=      5-min Rain = 0
KCA1 111001Z 11007KT 21/19 A3006 RMK A01 T02070188  RH  089%=      5-min Rain = 0
KCA1 111002Z 11007KT 21/19 A3007 RMK A01 T02070188  RH  089%=      5-min Rain = 0
KCA1 111003Z 11006KT 21/19 A3007 RMK A01 T02070188  RH  089%=      5-min Rain = 0
KCA1 111004Z 11006KT 21/19 A3007 RMK A01 T02070188  RH  089%=      5-min Rain = 0
KCA1 111005Z 11007KT 21/19 A3007 RMK A01 T02060188  RH  089%=      5-min Rain = 0
KCA1 111006Z 11007KT 21/19 A3007 RMK A01 T02060188  RH  089%=      5-min Rain = 0
KCA1 111007Z 11007KT 21/19 A3007 RMK A01 T02060188  RH  090%=      5-min Rain = 0
KCA1 111008Z 11007KT 21/19 A3006 RMK A01 T02050188  RH  090%=      5-min Rain = 0
KCA1 111009Z 11007KT 21/19 A3006 RMK A01 T02050188  RH  090%=      5-min Rain = 0
KCA1 111010Z 12008KT 21/19 A3006 RMK A01 T02050188  RH  090%=      5-min Rain = 0
KCA1 111011Z 12008KT 21/19 A3006 RMK A01 T02050188  RH  090%=      5-min Rain = 0
KCA1 111012Z 12008KT 21/19 A3006 RMK A01 T02050188  RH  090%=      5-min Rain = 0
KCA1 111013Z 12007KT 21/19 A3006 RMK A01 T02050188  RH  090%=      5-min Rain = 0
KCA1 111014Z 12007KT 21/19 A3006 RMK A01 T02060188  RH  090%=      5-min Rain = 0
KCA1 111015Z 12007KT 21/19 A3006 RMK A01 T02050188  RH  090%=      5-min Rain = 0
KCA1 111016Z 11006KT 21/19 A3006 RMK A01 T02050188  RH  090%=      5-min Rain = 0
KCA1 111017Z 11006KT 21/19 A3006 RMK A01 T02060188  RH  090%=      5-min Rain = 0
KCA1 111018Z 11007KT 21/19 A3007 RMK A01 T02050188  RH  090%=      5-min Rain = 0
KCA1 111019Z 11007KT 21/19 A3007 RMK A01 T02050188  RH  090%=      5-min Rain = 0
KCA1 111020Z 11007KT 21/19 A3007 RMK A01 T02050188  RH  090%=      5-min Rain = 0
KCA1 111021Z 11007KT 20/19 A3007 RMK A01 T02040188  RH  090%=      5-min Rain = 0
KCA1 111022Z 11007KT 21/19 A3007 RMK A01 T02050188  RH  090%=      5-min Rain = 0
KCA1 111023Z 11007KT 20/19 A3007 RMK A01 T02040188  RH  090%=      5-min Rain = 0
KCA1 111024Z 11007KT 21/19 A3007 RMK A01 T02050188  RH  090%=      5-min Rain = 0
KCA1 111025Z 11007KT 20/19 A3007 RMK A01 T02040188  RH  090%=      5-min Rain = 0
KCA1 111026Z 11008KT 21/19 A3007 RMK A01 T02050188  RH  090%=      5-min Rain = 0
KCA1 111027Z 11008KT 21/19 A3007 RMK A01 T02050188  RH  090%=      5-min Rain = 0
KCA1 111028Z 11008KT 21/19 A3007 RMK A01 T02060188  RH  090%=      5-min Rain = 0
KCA1 111029Z 12008KT 21/19 A3007 RMK A01 T02060188  RH  090%=      5-min Rain = 0
KCA1 111030Z 12008KT 21/19 A3007 RMK A01 T02060188  RH  089%=      5-min Rain = 0
KCA1 111031Z 11008KT 21/19 A3007 RMK A01 T02060188  RH  089%=      5-min Rain = 0
KCA1 111032Z 11007KT 21/19 A3007 RMK A01 T02060188  RH  089%=      5-min Rain = 0
KCA1 111033Z 11007KT 21/19 A3007 RMK A01 T02060188  RH  089%=      5-min Rain = 0
KCA1 111034Z 11008KT 21/19 A3007 RMK A01 T02060188  RH  090%=      5-min Rain = 0
KCA1 111035Z 11008KT 21/19 A3007 RMK A01 T02050188  RH  090%=      5-min Rain = 0
KCA1 111036Z 10008KT 21/19 A3007 RMK A01 T02050188  RH  090%=      5-min Rain = 0
KCA1 111037Z 10009KT 21/19 A3007 RMK A01 T02050188  RH  090%=      5-min Rain = 0
KCA1 111038Z 10009KT 20/19 A3007 RMK A01 T02040188  RH  090%=      5-min Rain = 0
KCA1 111039Z 10009KT 20/19 A3008 RMK A01 T02040188  RH  091%=      5-min Rain = 0
KCA1 111040Z 10009KT 20/19 A3008 RMK A01 T02040188  RH  091%=      5-min Rain = 0
KCA1 111041Z 10008KT 20/19 A3008 RMK A01 T02030188  RH  091%=      5-min Rain = 0
KCA1 111042Z 09008KT 20/19 A3008 RMK A01 T02030188  RH  091%=      5-min Rain = 0
KCA1 111043Z 10009KT 20/19 A3008 RMK A01 T02030188  RH  091%=      5-min Rain = 0
KCA1 111044Z 10009KT 20/19 A3008 RMK A01 T02030188  RH  091%=      5-min Rain = 0
KCA1 111045Z 10008KT 20/19 A3008 RMK A01 T02030188  RH  091%=      5-min Rain = 0
KCA1 111046Z 10008KT 20/19 A3008 RMK A01 T02030189  RH  092%=      5-min Rain = 0
KCA1 111047Z 10008KT 20/19 A3008 RMK A01 T02020188  RH  092%=      5-min Rain = 0
KCA1 111048Z 10009KT 20/19 A3008 RMK A01 T02020189  RH  092%=      5-min Rain = 0
KCA1 111049Z 11008KT 20/19 A3008 RMK A01 T02030189  RH  092%=      5-min Rain = 0
KCA1 111050Z 11008KT 20/19 A3008 RMK A01 T02020189  RH  092%=      5-min Rain = 0
KCA1 111051Z 11009KT 20/19 A3008 RMK A01 T02020189  RH  092%=      5-min Rain = 0
KCA1 111052Z 12008KT 20/19 A3008 RMK A01 T02020189  RH  092%=      5-min Rain = 0
KCA1 111053Z 12008KT 20/19 A3008 RMK A01 T02030189  RH  092%=      5-min Rain = 0
KCA1 111054Z 12008KT 20/19 A3008 RMK A01 T02030189  RH  092%=      5-min Rain = 0
KCA1 111055Z 12007KT 20/19 A3008 RMK A01 T02030189  RH  091%=      5-min Rain = 0
KCA1 111056Z 12007KT 20/19 A3008 RMK A01 T02040189  RH  091%=      5-min Rain = 0
KCA1 111057Z 13006KT 20/19 A3008 RMK A01 T02040189  RH  091%=      5-min Rain = 0
KCA1 111058Z 13006KT 20/19 A3008 RMK A01 T02030189  RH  091%=      5-min Rain = 0
KCA1 111059Z 13006KT 20/19 A3008 RMK A01 T02040189  RH  091%=      5-min Rain = 0
KCA1 111100Z 13006KT 20/19 A3008 RMK A01 T02040189  RH  091%=      5-min Rain = 0
KCA1 111101Z 14006KT 20/19 A3008 RMK A01 T02040189  RH  091%=      5-min Rain = 0
KCA1 111102Z 14006KT 20/19 A3008 RMK A01 T02030189  RH  091%=      5-min Rain = 0
KCA1 111103Z 14006KT 20/19 A3008 RMK A01 T02040189  RH  091%=      5-min Rain = 0
KCA1 111104Z 14006KT 20/19 A3008 RMK A01 T02030189  RH  091%=      5-min Rain = 0
KCA1 111105Z 14006KT 20/19 A3007 RMK A01 T02030189  RH  091%=      5-min Rain = 0
KCA1 111106Z 14005KT 20/19 A3007 RMK A01 T02030189  RH  092%=      5-min Rain = 0
KCA1 111107Z 14005KT 20/19 A3007 RMK A01 T02020189  RH  092%=      5-min Rain = 0
KCA1 111108Z 14005KT 20/19 A3007 RMK A01 T02020188  RH  092%=      5-min Rain = 0
KCA1 111109Z 13005KT 20/19 A3007 RMK A01 T02010188  RH  092%=      5-min Rain = 0
KCA1 111110Z 13005KT 20/19 A3007 RMK A01 T02010188  RH  092%=      5-min Rain = 0
KCA1 111111Z 13005KT 20/19 A3007 RMK A01 T02000188  RH  093%=      5-min Rain = 0
KCA1 111112Z 12004KT 20/19 A3007 RMK A01 T02000188  RH  093%=      5-min Rain = 0
KCA1 111113Z 12004KT 20/19 A3007 RMK A01 T01990188  RH  093%=      5-min Rain = 0
KCA1 111114Z 12004KT 20/19 A3007 RMK A01 T01990188  RH  093%=      5-min Rain = 0
KCA1 111115Z 12005KT 20/19 A3007 RMK A01 T01980188  RH  093%=      5-min Rain = 0
KCA1 111116Z 12005KT 20/19 A3007 RMK A01 T01980187  RH  094%=      5-min Rain = 0
KCA1 111117Z 11005KT 20/19 A3007 RMK A01 T01980188  RH  094%=      5-min Rain = 0
KCA1 111118Z 12006KT 20/19 A3007 RMK A01 T01980188  RH  094%=      5-min Rain = 0
KCA1 111119Z 12006KT 20/19 A3007 RMK A01 T01980188  RH  094%=      5-min Rain = 0
KCA1 111120Z 12007KT 20/19 A3007 RMK A01 T01980188  RH  094%=      5-min Rain = 0
KCA1 111121Z 12007KT 20/19 A3007 RMK A01 T01980188  RH  094%=      5-min Rain = 0
KCA1 111122Z 13007KT 20/19 A3007 RMK A01 T01980188  RH  094%=      5-min Rain = 0
KCA1 111123Z 13007KT 20/19 A3007 RMK A01 T01980188  RH  094%=      5-min Rain = 0
KCA1 111124Z 13007KT 20/19 A3007 RMK A01 T01990189  RH  094%=      5-min Rain = 0
KCA1 111125Z 12006KT 20/19 A3007 RMK A01 T01990188  RH  093%=      5-min Rain = 0
KCA1 111126Z 12007KT 20/19 A3007 RMK A01 T01990188  RH  093%=      5-min Rain = 0
KCA1 111127Z 12006KT 20/19 A3007 RMK A01 T01990188  RH  093%=      5-min Rain = 0
KCA1 111128Z 12006KT 20/19 A3007 RMK A01 T02000189  RH  093%=      5-min Rain = 0
KCA1 111129Z 12005KT 20/19 A3008 RMK A01 T01990188  RH  093%=      5-min Rain = 0
KCA1 111130Z 11005KT 20/19 A3008 RMK A01 T01990189  RH  093%=      5-min Rain = 0
KCA1 111131Z 11005KT 20/19 A3008 RMK A01 T01990189  RH  094%=      5-min Rain = 0
KCA1 111132Z 11004KT 20/19 A3008 RMK A01 T01990189  RH  094%=      5-min Rain = 0
KCA1 111133Z 10004KT 20/19 A3008 RMK A01 T01990189  RH  094%=      5-min Rain = 0
KCA1 111134Z 10004KT 20/19 A3008 RMK A01 T01990188  RH  094%=      5-min Rain = 0
KCA1 111135Z 10004KT 20/19 A3008 RMK A01 T01990189  RH  094%=      5-min Rain = 0
KCA1 111136Z 09004KT 20/19 A3008 RMK A01 T01990188  RH  094%=      5-min Rain = 0
KCA1 111137Z 09004KT 20/19 A3008 RMK A01 T01990189  RH  094%=      5-min Rain = 0
KCA1 111138Z 09003KT 20/19 A3008 RMK A01 T01990189  RH  094%=      5-min Rain = 0
KCA1 111139Z 09003KT 20/19 A3008 RMK A01 T01990189  RH  094%=      5-min Rain = 0
KCA1 111140Z 10003KT 20/19 A3008 RMK A01 T01980189  RH  094%=      5-min Rain = 0
KCA1 111141Z 10003KT 20/19 A3008 RMK A01 T01980189  RH  094%=      5-min Rain = 0
KCA1 111142Z 10003KT 20/19 A3008 RMK A01 T01980189  RH  094%=      5-min Rain = 0
KCA1 111143Z 10003KT 20/19 A3008 RMK A01 T01990189  RH  094%=      5-min Rain = 0
KCA1 111144Z 10003KT 20/19 A3008 RMK A01 T01980189  RH  094%=      5-min Rain = 0
KCA1 111145Z 10003KT 20/19 A3008 RMK A01 T01980189  RH  094%=      5-min Rain = 0
KCA1 111146Z 10003KT 20/19 A3008 RMK A01 T01980189  RH  094%=      5-min Rain = 0
KCA1 111147Z 10003KT 20/19 A3008 RMK A01 T01980189  RH  094%=      5-min Rain = 0
KCA1 111148Z 10003KT 20/19 A3008 RMK A01 T01980189  RH  094%=      5-min Rain = 0
KCA1 111149Z 10003KT 20/19 A3008 RMK A01 T01980189  RH  094%=      5-min Rain = 0
KCA1 111150Z 10003KT 20/19 A3008 RMK A01 T01990189  RH  094%=      5-min Rain = 0
KCA1 111151Z 10002KT 20/19 A3008 RMK A01 T01990189  RH  094%=      5-min Rain = 0
KCA1 111152Z 10002KT 20/19 A3008 RMK A01 T01990189  RH  094%=      5-min Rain = 0
KCA1 111153Z 09002KT 20/19 A3008 RMK A01 T01990190  RH  094%=      5-min Rain = 0
KCA1 111154Z 09002KT 20/19 A3008 RMK A01 T01990189  RH  094%=      5-min Rain = 0
KCA1 111155Z 09002KT 20/19 A3008 RMK A01 T01990189  RH  094%=      5-min Rain = 0
KCA1 111156Z 08002KT 20/19 A3008 RMK A01 T01990189  RH  094%=      5-min Rain = 0
KCA1 111157Z 09003KT 20/19 A3008 RMK A01 T01990190  RH  094%=      5-min Rain = 0
KCA1 111158Z 09003KT 20/19 A3008 RMK A01 T01990189  RH  094%=      5-min Rain = 0
KCA1 111159Z 08002KT 20/19 A3008 RMK A01 T01990190  RH  094%=      5-min Rain = 0
KCA1 111200Z 08003KT 20/19 A3008 RMK A01 T01990190  RH  095%=      5-min Rain = 0
KCA1 111201Z 08003KT 20/19 A3008 RMK A01 T01990190  RH  095%=      5-min Rain = 0
KCA1 111202Z 08003KT 20/19 A3008 RMK A01 T02000191  RH  095%=      5-min Rain = 0
KCA1 111203Z 08003KT 20/19 A3008 RMK A01 T02000191  RH  094%=      5-min Rain = 0
KCA1 111204Z 08003KT 20/19 A3008 RMK A01 T02000191  RH  094%=      5-min Rain = 0
KCA1 111205Z 08003KT 20/19 A3008 RMK A01 T02010192  RH  094%=      5-min Rain = 0
KCA1 111206Z 07004KT 20/19 A3008 RMK A01 T02020192  RH  094%=      5-min Rain = 0
KCA1 111207Z 06003KT 20/19 A3008 RMK A01 T02030193  RH  094%=      5-min Rain = 0
KCA1 111208Z 06003KT 20/19 A3008 RMK A01 T02030193  RH  094%=      5-min Rain = 0
KCA1 111209Z 07003KT 20/19 A3008 RMK A01 T02040193  RH  094%=      5-min Rain = 0
KCA1 111210Z 07003KT 20/19 A3008 RMK A01 T02040192  RH  093%=      5-min Rain = 0
KCA1 111211Z 07003KT 20/19 A3008 RMK A01 T02040192  RH  093%=      5-min Rain = 0
KCA1 111212Z 07003KT 21/19 A3008 RMK A01 T02050192  RH  092%=      5-min Rain = 0
KCA1 111213Z 07003KT 21/19 A3008 RMK A01 T02050192  RH  092%=      5-min Rain = 0
KCA1 111214Z 08003KT 21/19 A3008 RMK A01 T02060192  RH  092%=      5-min Rain = 0
KCA1 111215Z 08002KT 21/19 A3008 RMK A01 T02070193  RH  092%=      5-min Rain = 0
KCA1 111216Z 09003KT 21/19 A3008 RMK A01 T02070193  RH  091%=      5-min Rain = 0
KCA1 111217Z 09003KT 21/19 A3008 RMK A01 T02080193  RH  091%=      5-min Rain = 0
KCA1 111218Z 09003KT 21/19 A3008 RMK A01 T02090194  RH  091%=      5-min Rain = 0
KCA1 111219Z 10004KT 21/19 A3008 RMK A01 T02100194  RH  091%=      5-min Rain = 0
KCA1 111220Z 10004KT 21/19 A3008 RMK A01 T02100194  RH  090%=      5-min Rain = 0
KCA1 111221Z 10005KT 21/19 A3008 RMK A01 T02110193  RH  090%=      5-min Rain = 0
KCA1 111222Z 10006KT 21/19 A3008 RMK A01 T02110193  RH  090%=      5-min Rain = 0
KCA1 111223Z 10005KT 21/19 A3008 RMK A01 T02110194  RH  090%=      5-min Rain = 0
KCA1 111224Z 10005KT 21/19 A3008 RMK A01 T02110194  RH  090%=      5-min Rain = 0
KCA1 111225Z 10006KT 21/19 A3008 RMK A01 T02120194  RH  090%=      5-min Rain = 0
KCA1 111226Z 09005KT 21/20 A3008 RMK A01 T02120195  RH  090%=      5-min Rain = 0
KCA1 111227Z 09005KT 21/20 A3008 RMK A01 T02120195  RH  090%=      5-min Rain = 0
KCA1 111228Z 09005KT 21/20 A3008 RMK A01 T02120196  RH  091%=      5-min Rain = 0
KCA1 111229Z 10004KT 21/20 A3008 RMK A01 T02120196  RH  091%=      5-min Rain = 0
KCA1 111230Z 10005KT 21/20 A3009 RMK A01 T02120197  RH  091%=      5-min Rain = 0
KCA1 111231Z 09006KT 21/20 A3009 RMK A01 T02120195  RH  090%=      5-min Rain = 0
KCA1 111232Z 09005KT 21/20 A3009 RMK A01 T02120195  RH  090%=      5-min Rain = 0
KCA1 111233Z 08005KT 21/20 A3009 RMK A01 T02130196  RH  090%=      5-min Rain = 0
KCA1 111234Z 09005KT 21/20 A3009 RMK A01 T02130195  RH  090%=      5-min Rain = 0
KCA1 111235Z 09006KT 21/20 A3009 RMK A01 T02130196  RH  090%=      5-min Rain = 0
KCA1 111236Z 09006KT 21/20 A3009 RMK A01 T02130196  RH  090%=      5-min Rain = 0
KCA1 111237Z 09006KT 21/20 A3009 RMK A01 T02130196  RH  090%=      5-min Rain = 0
KCA1 111238Z 10006KT 21/20 A3008 RMK A01 T02130195  RH  089%=      5-min Rain = 0
KCA1 111239Z 09007KT 21/20 A3008 RMK A01 T02130195  RH  089%=      5-min Rain = 0
KCA1 111240Z 10006KT 21/19 A3008 RMK A01 T02130194  RH  089%=      5-min Rain = 0
KCA1 111241Z 10006KT 21/19 A3008 RMK A01 T02130194  RH  089%=      5-min Rain = 0
KCA1 111242Z 10005KT 21/19 A3009 RMK A01 T02130194  RH  089%=      5-min Rain = 0
KCA1 111243Z 10006KT 21/20 A3009 RMK A01 T02130195  RH  089%=      5-min Rain = 0
KCA1 111244Z 11007KT 21/19 A3009 RMK A01 T02140194  RH  088%=      5-min Rain = 0
KCA1 111245Z 11006KT 22/19 A3009 RMK A01 T02150194  RH  088%=      5-min Rain = 0
KCA1 111246Z 10006KT 22/19 A3009 RMK A01 T02150194  RH  088%=      5-min Rain = 0
KCA1 111247Z 11006KT 22/20 A3009 RMK A01 T02160195  RH  088%=      5-min Rain = 0
KCA1 111248Z 10007KT 22/20 A3009 RMK A01 T02170195  RH  087%=      5-min Rain = 0
KCA1 111249Z 10007KT 22/20 A3009 RMK A01 T02170195  RH  087%=      5-min Rain = 0
KCA1 111250Z 10006KT 22/20 A3009 RMK A01 T02170195  RH  088%=      5-min Rain = 0
KCA1 111251Z 10006KT 22/20 A3009 RMK A01 T02170196  RH  088%=      5-min Rain = 0
KCA1 111252Z 10007KT 22/20 A3009 RMK A01 T02160196  RH  088%=      5-min Rain = 0
KCA1 111253Z 10006KT 22/20 A3009 RMK A01 T02160196  RH  088%=      5-min Rain = 0
KCA1 111254Z 09006KT 22/20 A3009 RMK A01 T02160197  RH  089%=      5-min Rain = 0
KCA1 111255Z 10005KT 22/20 A3009 RMK A01 T02160197  RH  089%=      5-min Rain = 0
KCA1 111256Z 10006KT 22/20 A3009 RMK A01 T02160197  RH  089%=      5-min Rain = 0
KCA1 111257Z 10006KT 22/20 A3009 RMK A01 T02170197  RH  089%=      5-min Rain = 0
KCA1 111258Z 10007KT 22/20 A3009 RMK A01 T02170197  RH  088%=      5-min Rain = 0
KCA1 111259Z 11005KT 22/20 A3009 RMK A01 T02170197  RH  088%=      5-min Rain = 0
KCA1 111300Z 10006KT 22/20 A3009 RMK A01 T02180197  RH  088%=      5-min Rain = 0
KCA1 111301Z 10006KT 22/20 A3009 RMK A01 T02180198  RH  088%=      5-min Rain = 0
KCA1 111302Z 10006KT 22/20 A3009 RMK A01 T02190198  RH  088%=      5-min Rain = 0
KCA1 111303Z 11005KT 22/20 A3009 RMK A01 T02190197  RH  087%=      5-min Rain = 0
KCA1 111304Z 11005KT 22/20 A3009 RMK A01 T02190198  RH  087%=      5-min Rain = 0
KCA1 111305Z 10006KT 22/20 A3009 RMK A01 T02200197  RH  087%=      5-min Rain = 0
KCA1 111306Z 11006KT 22/20 A3009 RMK A01 T02200196  RH  087%=      5-min Rain = 0
KCA1 111307Z 10005KT 22/20 A3009 RMK A01 T02200196  RH  087%=      5-min Rain = 0
KCA1 111308Z 10005KT 22/20 A3009 RMK A01 T02200197  RH  087%=      5-min Rain = 0
KCA1 111309Z 10005KT 22/20 A3009 RMK A01 T02200196  RH  086%=      5-min Rain = 0
KCA1 111310Z 10005KT 22/20 A3009 RMK A01 T02200195  RH  085%=      5-min Rain = 0
KCA1 111311Z 11005KT 22/20 A3009 RMK A01 T02200195  RH  086%=      5-min Rain = 0
KCA1 111312Z 10004KT 22/20 A3009 RMK A01 T02210196  RH  086%=      5-min Rain = 0
KCA1 111313Z 11005KT 22/20 A3009 RMK A01 T02210197  RH  086%=      5-min Rain = 0
KCA1 111314Z 13005KT 22/20 A3009 RMK A01 T02210196  RH  086%=      5-min Rain = 0
KCA1 111315Z 13006KT 22/20 A3009 RMK A01 T02210195  RH  085%=      5-min Rain = 0
KCA1 111316Z 12004KT 22/20 A3009 RMK A01 T02220195  RH  085%=      5-min Rain = 0
KCA1 111317Z 12004KT 22/20 A3009 RMK A01 T02220196  RH  085%=      5-min Rain = 0
KCA1 111318Z 12005KT 22/20 A3008 RMK A01 T02220198  RH  086%=      5-min Rain = 0
KCA1 111319Z 12005KT 22/20 A3009 RMK A01 T02230197  RH  085%=      5-min Rain = 0
KCA1 111320Z 13005KT 22/20 A3009 RMK A01 T02230197  RH  085%=      5-min Rain = 0
KCA1 111321Z 13005KT 22/20 A3009 RMK A01 T02230198  RH  085%=      5-min Rain = 0
KCA1 111322Z 12005KT 22/20 A3009 RMK A01 T02240197  RH  085%=      5-min Rain = 0
KCA1 111323Z 13006KT 22/20 A3009 RMK A01 T02240196  RH  084%=      5-min Rain = 0
KCA1 111324Z 13005KT 22/20 A3009 RMK A01 T02240195  RH  084%=      5-min Rain = 0
KCA1 111325Z 12006KT 22/20 A3009 RMK A01 T02240196  RH  084%=      5-min Rain = 0
KCA1 111326Z 13004KT 22/20 A3009 RMK A01 T02240196  RH  085%=      5-min Rain = 0
KCA1 111327Z 12005KT 22/20 A3009 RMK A01 T02240197  RH  085%=      5-min Rain = 0
KCA1 111328Z 11006KT 22/20 A3009 RMK A01 T02240196  RH  084%=      5-min Rain = 0
KCA1 111329Z 12007KT 22/20 A3009 RMK A01 T02240196  RH  084%=      5-min Rain = 0
KCA1 111330Z 12006KT 22/20 A3009 RMK A01 T02240196  RH  084%=      5-min Rain = 0
KCA1 111331Z 12005KT 22/20 A3009 RMK A01 T02240197  RH  084%=      5-min Rain = 0
KCA1 111332Z 12005KT 22/20 A3009 RMK A01 T02240196  RH  084%=      5-min Rain = 0
KCA1 111333Z 11005KT 23/20 A3009 RMK A01 T02250197  RH  084%=      5-min Rain = 0
KCA1 111334Z 11005KT 23/20 A3009 RMK A01 T02250198  RH  084%=      5-min Rain = 0
KCA1 111335Z 11004KT 23/20 A3009 RMK A01 T02260199  RH  085%=      5-min Rain = 0
KCA1 111336Z 11005KT 23/20 A3009 RMK A01 T02260198  RH  084%=      5-min Rain = 0
KCA1 111337Z 11004KT 23/20 A3009 RMK A01 T02260199  RH  085%=      5-min Rain = 0
KCA1 111338Z 11006KT 23/20 A3009 RMK A01 T02270197  RH  083%=      5-min Rain = 0
KCA1 111339Z 11004KT 23/20 A3009 RMK A01 T02270196  RH  083%=      5-min Rain = 0
KCA1 111340Z 12005KT 23/20 A3009 RMK A01 T02270197  RH  084%=      5-min Rain = 0
KCA1 111341Z 11005KT 23/20 A3009 RMK A01 T02270198  RH  083%=      5-min Rain = 0
KCA1 111342Z 10004KT 23/20 A3009 RMK A01 T02290198  RH  083%=      5-min Rain = 0
KCA1 111343Z 10005KT 23/20 A3009 RMK A01 T02300198  RH  082%=      5-min Rain = 0
KCA1 111344Z 10004KT 23/20 A3009 RMK A01 T02310199  RH  082%=      5-min Rain = 0
KCA1 111345Z 12005KT 23/20 A3009 RMK A01 T02330199  RH  082%=      5-min Rain = 0
KCA1 111346Z 11005KT 23/20 A3009 RMK A01 T02330198  RH  081%=      5-min Rain = 0
KCA1 111347Z 11004KT 23/20 A3009 RMK A01 T02330199  RH  081%=      5-min Rain = 0
KCA1 111348Z 12004KT 23/20 A3009 RMK A01 T02330199  RH  081%=      5-min Rain = 0
KCA1 111349Z 12004KT 23/20 A3009 RMK A01 T02330199  RH  081%=      5-min Rain = 0
KCA1 111350Z 12005KT 23/20 A3009 RMK A01 T02330199  RH  081%=      5-min Rain = 0
KCA1 111351Z 12005KT 23/20 A3009 RMK A01 T02340198  RH  080%=      5-min Rain = 0
KCA1 111352Z 14005KT 23/20 A3009 RMK A01 T02340199  RH  081%=      5-min Rain = 0
KCA1 111353Z 14005KT 24/20 A3009 RMK A01 T02350197  RH  079%=      5-min Rain = 0
KCA1 111354Z 14005KT 24/20 A3009 RMK A01 T02350198  RH  079%=      5-min Rain = 0
KCA1 111355Z 14005KT 24/20 A3009 RMK A01 T02350198  RH  080%=      5-min Rain = 0
KCA1 111356Z 14007KT 24/20 A3009 RMK A01 T02360198  RH  079%=      5-min Rain = 0
KCA1 111357Z 15006KT 24/20 A3009 RMK A01 T02360197  RH  079%=      5-min Rain = 0
KCA1 111358Z 16007KT 24/20 A3009 RMK A01 T02360197  RH  079%=      5-min Rain = 0
KCA1 111359Z 17006KT 24/20 A3009 RMK A01 T02350196  RH  079%=      5-min Rain = 0
KCA1 111400Z 16007KT 24/20 A3009 RMK A01 T02350197  RH  079%=      5-min Rain = 0
KCA1 111401Z 17006KT 24/20 A3009 RMK A01 T02350198  RH  080%=      5-min Rain = 0
KCA1 111402Z 16005KT 24/20 A3009 RMK A01 T02360199  RH  080%=      5-min Rain = 0
KCA1 111403Z 15006KT 24/20 A3009 RMK A01 T02370200  RH  080%=      5-min Rain = 0
KCA1 111404Z 15007KT 24/20 A3009 RMK A01 T02380201  RH  080%=      5-min Rain = 0
KCA1 111405Z 16008KT 24/20 A3009 RMK A01 T02380198  RH  078%=      5-min Rain = 0
KCA1 111406Z 16007KT 24/20 A3009 RMK A01 T02380198  RH  078%=      5-min Rain = 0
KCA1 111407Z 15007KT 24/20 A3009 RMK A01 T02370199  RH  079%=      5-min Rain = 0
KCA1 111408Z 16008KT 24/20 A3009 RMK A01 T02380200  RH  079%=      5-min Rain = 0
KCA1 111409Z 15008KT 24/20 A3009 RMK A01 T02390200  RH  079%=      5-min Rain = 0
KCA1 111410Z 15008KT 24/20 A3009 RMK A01 T02390200  RH  079%=      5-min Rain = 0
KCA1 111411Z 15008KT 24/20 A3009 RMK A01 T02400199  RH  078%=      5-min Rain = 0
KCA1 111412Z 14008KT 24/20 A3009 RMK A01 T02400200  RH  078%=      5-min Rain = 0
KCA1 111413Z 14007KT 24/20 A3009 RMK A01 T02420199  RH  077%=      5-min Rain = 0
KCA1 111414Z 15008KT 24/20 A3009 RMK A01 T02430201  RH  077%=      5-min Rain = 0
KCA1 111415Z 14008KT 25/20 A3009 RMK A01 T02460202  RH  076%=      5-min Rain = 0
KCA1 111416Z 15008KT 25/20 A301 RMK A01 T02470202  RH  076%=      5-min Rain = 0
KCA1 111417Z 14007KT 25/20 A301 RMK A01 T02470201  RH  075%=      5-min Rain = 0
KCA1 111418Z 14006KT 25/20 A301 RMK A01 T02460199  RH  075%=      5-min Rain = 0
KCA1 111419Z 14006KT 24/20 A3009 RMK A01 T02440199  RH  076%=      5-min Rain = 0
KCA1 111420Z 16006KT 24/20 A3009 RMK A01 T02440199  RH  076%=      5-min Rain = 0
KCA1 111421Z 15005KT 24/20 A3009 RMK A01 T02430201  RH  077%=      5-min Rain = 0
KCA1 111422Z 14007KT 24/20 A3009 RMK A01 T02440201  RH  077%=      5-min Rain = 0
KCA1 111423Z 15005KT 25/20 A3009 RMK A01 T02450201  RH  076%=      5-min Rain = 0
KCA1 111424Z 15006KT 25/20 A3009 RMK A01 T02460200  RH  075%=      5-min Rain = 0
KCA1 111425Z 16006KT 25/20 A3009 RMK A01 T02480201  RH  075%=      5-min Rain = 0
KCA1 111426Z 16006KT 25/20 A301 RMK A01 T02510203  RH  075%=      5-min Rain = 0
KCA1 111427Z 14006KT 25/20 A301 RMK A01 T02540203  RH  074%=      5-min Rain = 0
KCA1 111428Z 14005KT 26/20 A301 RMK A01 T02560202  RH  072%=      5-min Rain = 0
KCA1 111429Z 14005KT 26/20 A301 RMK A01 T02570201  RH  071%=      5-min Rain = 0
KCA1 111430Z 14006KT 26/20 A301 RMK A01 T02580201  RH  071%=      5-min Rain = 0
KCA1 111431Z 14004KT 26/20 A301 RMK A01 T02580200  RH  071%=      5-min Rain = 0
KCA1 111432Z 16006KT 26/20 A301 RMK A01 T02580202  RH  071%=      5-min Rain = 0
KCA1 111433Z 17003KT 26/20 A301 RMK A01 T02590200  RH  070%=      5-min Rain = 0
KCA1 111434Z 15005KT 26/20 A301 RMK A01 T02590202  RH  071%=      5-min Rain = 0
KCA1 111435Z 14006KT 26/20 A301 RMK A01 T02620204  RH  070%=      5-min Rain = 0
KCA1 111436Z 15007KT 26/20 A301 RMK A01 T02640203  RH  069%=      5-min Rain = 0
KCA1 111437Z 15007KT 27/20 A301 RMK A01 T02650203  RH  069%=      5-min Rain = 0
KCA1 111438Z 15007KT 27/20 A3009 RMK A01 T02650201  RH  068%=      5-min Rain = 0
KCA1 111439Z 15006KT 26/20 A3009 RMK A01 T02640201  RH  068%=      5-min Rain = 0
KCA1 111440Z 15006KT 26/20 A3009 RMK A01 T02640201  RH  068%=      5-min Rain = 0
KCA1 111441Z 15005KT 26/20 A3009 RMK A01 T02640201  RH  068%=      5-min Rain = 0
KCA1 111442Z 13006KT 27/20 A3009 RMK A01 T02650202  RH  068%=      5-min Rain = 0
KCA1 111443Z 12005KT 27/20 A3009 RMK A01 T02650203  RH  069%=      5-min Rain = 0
KCA1 111444Z 12007KT 27/20 A301 RMK A01 T02660200  RH  067%=      5-min Rain = 0
KCA1 111445Z 12005KT 27/20 A3009 RMK A01 T02650202  RH  068%=      5-min Rain = 0
KCA1 111446Z 14005KT 27/20 A3009 RMK A01 T02660204  RH  069%=      5-min Rain = 0
KCA1 111447Z 15005KT 27/20 A3009 RMK A01 T02680201  RH  067%=      5-min Rain = 0
KCA1 111448Z 15007KT 27/20 A3009 RMK A01 T02690203  RH  067%=      5-min Rain = 0
KCA1 111449Z 14007KT 27/20 A3009 RMK A01 T02690201  RH  066%=      5-min Rain = 0
KCA1 111450Z 14007KT 27/20 A3009 RMK A01 T02680202  RH  067%=      5-min Rain = 0
KCA1 111451Z 14005KT 27/20 A3009 RMK A01 T02680202  RH  067%=      5-min Rain = 0
KCA1 111452Z 13007KT 27/20 A3009 RMK A01 T02680202  RH  067%=      5-min Rain = 0
KCA1 111453Z 15007KT 27/20 A3009 RMK A01 T02680201  RH  066%=      5-min Rain = 0
KCA1 111454Z 17004KT 27/20 A3009 RMK A01 T02680201  RH  066%=      5-min Rain = 0
KCA1 111455Z 14007KT 27/20 A3009 RMK A01 T02690203  RH  067%=      5-min Rain = 0
KCA1 111456Z 14007KT 27/20 A3009 RMK A01 T02700203  RH  067%=      5-min Rain = 0
KCA1 111457Z 15006KT 27/20 A3009 RMK A01 T02720201  RH  065%=      5-min Rain = 0
KCA1 111458Z 14004KT 27/20 A3009 RMK A01 T02730203  RH  066%=      5-min Rain = 0
KCA1 111459Z 13007KT 28/21 A3009 RMK A01 T02750205  RH  066%=      5-min Rain = 0
KCA1 111500Z 13007KT 28/20 A3009 RMK A01 T02770203  RH  064%=      5-min Rain = 0
KCA1 111501Z 15006KT 28/20 A3009 RMK A01 T02770202  RH  063%=      5-min Rain = 0
KCA1 111502Z 16007KT 28/20 A3009 RMK A01 T02770204  RH  064%=      5-min Rain = 0
KCA1 111503Z 16005KT 28/20 A3009 RMK A01 T02760201  RH  064%=      5-min Rain = 0
KCA1 111504Z 14006KT 28/20 A3009 RMK A01 T02770203  RH  064%=      5-min Rain = 0
KCA1 111505Z 13005KT 28/20 A3009 RMK A01 T02770201  RH  063%=      5-min Rain = 0
KCA1 111506Z 14007KT 28/20 A3009 RMK A01 T02780204  RH  064%=      5-min Rain = 0
KCA1 111507Z 15005KT 28/20 A3009 RMK A01 T02790204  RH  064%=      5-min Rain = 0
KCA1 111508Z 15007KT 28/20 A3009 RMK A01 T02800201  RH  062%=      5-min Rain = 0
KCA1 111509Z 15006KT 28/20 A301 RMK A01 T02800204  RH  063%=      5-min Rain = 0
KCA1 111510Z 13005KT 28/20 A301 RMK A01 T02800200  RH  062%=      5-min Rain = 0
KCA1 111511Z 14006KT 28/20 A301 RMK A01 T02810201  RH  062%=      5-min Rain = 0
KCA1 111512Z 14005KT 28/20 A3009 RMK A01 T02810199  RH  061%=      5-min Rain = 0
KCA1 111513Z 13007KT 28/20 A3009 RMK A01 T02810204  RH  063%=      5-min Rain = 0
KCA1 111514Z 14007KT 28/20 A3009 RMK A01 T02820202  RH  062%=      5-min Rain = 0
KCA1 111515Z 13007KT 28/20 A301 RMK A01 T02820201  RH  061%=      5-min Rain = 0
KCA1 111516Z 14005KT 28/20 A3009 RMK A01 T02820202  RH  062%=      5-min Rain = 0
KCA1 111517Z 14005KT 28/20 A3009 RMK A01 T02830202  RH  061%=      5-min Rain = 0
KCA1 111518Z 14004KT 28/20 A3009 RMK A01 T02830199  RH  060%=      5-min Rain = 0
KCA1 111519Z 16006KT 28/20 A3009 RMK A01 T02830202  RH  062%=      5-min Rain = 0
KCA1 111520Z 14006KT 28/20 A3009 RMK A01 T02840203  RH  061%=      5-min Rain = 0
KCA1 111521Z 16006KT 29/21 A3009 RMK A01 T02870206  RH  062%=      5-min Rain = 0
KCA1 111522Z 17007KT 29/20 A3009 RMK A01 T02890201  RH  059%=      5-min Rain = 0
KCA1 111523Z 17006KT 29/20 A3009 RMK A01 T02890200  RH  058%=      5-min Rain = 0
KCA1 111524Z 16004KT 29/20 A3009 RMK A01 T02900199  RH  058%=      5-min Rain = 0
KCA1 111525Z 19005KT 29/20 A3009 RMK A01 T02910200  RH  058%=      5-min Rain = 0
KCA1 111526Z 20006KT 29/19 A3009 RMK A01 T02930194  RH  055%=      5-min Rain = 0
KCA1 111527Z 22007KT 29/20 A3009 RMK A01 T02930195  RH  055%=      5-min Rain = 0
KCA1 111528Z 21006KT 29/19 A3009 RMK A01 T02940192  RH  054%=      5-min Rain = 0
KCA1 111529Z 18006KT 29/19 A3009 RMK A01 T02930193  RH  055%=      5-min Rain = 0
KCA1 111530Z 16006KT 29/19 A3009 RMK A01 T02930192  RH  055%=      5-min Rain = 0
KCA1 111531Z 16005KT 29/19 A3009 RMK A01 T02930191  RH  054%=      5-min Rain = 0
KCA1 111532Z 16006KT 29/19 A3009 RMK A01 T02940192  RH  054%=      5-min Rain = 0
KCA1 111533Z 15006KT 30/19 A3009 RMK A01 T02950191  RH  054%=      5-min Rain = 0
KCA1 111534Z 16004KT 30/19 A3009 RMK A01 T02960194  RH  054%=      5-min Rain = 0
KCA1 111535Z 17006KT 30/20 A3009 RMK A01 T02990195  RH  054%=      5-min Rain = 0
KCA1 111536Z 17008KT 30/20 A3009 RMK A01 T03000195  RH  053%=      5-min Rain = 0
KCA1 111537Z 19008KT 30/19 A3009 RMK A01 T03000191  RH  052%=      5-min Rain = 0
KCA1 111538Z 20008KT 30/19 A3009 RMK A01 T02990189  RH  052%=      5-min Rain = 0
KCA1 111539Z 20007KT 30/19 A3009 RMK A01 T02980188  RH  052%=      5-min Rain = 0
KCA1 111540Z 20006KT 30/18 A3009 RMK A01 T02970184  RH  051%=      5-min Rain = 0
KCA1 111541Z 21005KT 30/19 A3009 RMK A01 T02950186  RH  052%=      5-min Rain = 0
KCA1 111542Z 19007KT 29/19 A3009 RMK A01 T02940191  RH  054%=      5-min Rain = 0
KCA1 111543Z 20008KT 30/19 A3009 RMK A01 T02960191  RH  053%=      5-min Rain = 0
KCA1 111544Z 22006KT 30/19 A3009 RMK A01 T02970189  RH  052%=      5-min Rain = 0
KCA1 111545Z 21004KT 30/19 A3009 RMK A01 T02970190  RH  053%=      5-min Rain = 0
KCA1 111546Z 20003KT 30/19 A3009 RMK A01 T02960189  RH  053%=      5-min Rain = 0
KCA1 111547Z 19005KT 30/19 A3009 RMK A01 T02960190  RH  053%=      5-min Rain = 0
KCA1 111548Z 20005KT 30/19 A3009 RMK A01 T02960193  RH  054%=      5-min Rain = 0
KCA1 111549Z 20005KT 30/19 A3009 RMK A01 T02970190  RH  053%=      5-min Rain = 0
KCA1 111550Z 17007KT 30/19 A3009 RMK A01 T02970192  RH  053%=      5-min Rain = 0
KCA1 111551Z 16006KT 30/19 A3009 RMK A01 T02970191  RH  053%=      5-min Rain = 0
KCA1 111552Z 17005KT 30/19 A3009 RMK A01 T02980192  RH  053%=      5-min Rain = 0
KCA1 111553Z 21005KT 30/19 A3009 RMK A01 T03000193  RH  053%=      5-min Rain = 0
KCA1 111554Z 20005KT 30/19 A3009 RMK A01 T03000192  RH  052%=      5-min Rain = 0
KCA1 111555Z 17005KT 30/20 A3009 RMK A01 T03000195  RH  053%=      5-min Rain = 0
KCA1 111556Z 19006KT 30/20 A3009 RMK A01 T03020196  RH  053%=      5-min Rain = 0
KCA1 111557Z 19008KT 31/20 A3009 RMK A01 T03050195  RH  052%=      5-min Rain = 0
KCA1 111558Z 19008KT 31/19 A3009 RMK A01 T03060193  RH  051%=      5-min Rain = 0
KCA1 111559Z 20006KT 31/19 A3009 RMK A01 T03050193  RH  051%=      5-min Rain = 0
KCA1 111600Z 21008KT 30/19 A3009 RMK A01 T03030189  RH  051%=      5-min Rain = 0
KCA1 111601Z 20007KT 30/19 A3008 RMK A01 T03010190  RH  051%=      5-min Rain = 0
KCA1 111602Z 19007KT 30/19 A3009 RMK A01 T03010194  RH  053%=      5-min Rain = 0
KCA1 111603Z 17005KT 30/19 A3008 RMK A01 T03040191  RH  051%=      5-min Rain = 0
KCA1 111604Z 17007KT 31/19 A3008 RMK A01 T03060192  RH  051%=      5-min Rain = 0
KCA1 111605Z 19007KT 31/19 A3008 RMK A01 T03070192  RH  050%=      5-min Rain = 0
KCA1 111606Z 21009KT 31/19 A3008 RMK A01 T03070192  RH  050%=      5-min Rain = 0
KCA1 111607Z 19010KT 31/19 A3008 RMK A01 T03060190  RH  050%=      5-min Rain = 0
KCA1 111608Z 19008KT 31/19 A3008 RMK A01 T03060191  RH  050%=      5-min Rain = 0
KCA1 111609Z 18008KT 31/19 A3008 RMK A01 T03060191  RH  050%=      5-min Rain = 0
KCA1 111610Z 18006KT 31/19 A3008 RMK A01 T03070189  RH  049%=      5-min Rain = 0
KCA1 111611Z 19003KT 31/19 A3008 RMK A01 T03070188  RH  049%=      5-min Rain = 0
KCA1 111612Z 17004KT 31/19 A3008 RMK A01 T03060192  RH  051%=      5-min Rain = 0
KCA1 111613Z 19008KT 31/19 A3008 RMK A01 T03090192  RH  050%=      5-min Rain = 0
KCA1 111614Z 18008KT 31/19 A3008 RMK A01 T03110187  RH  048%=      5-min Rain = 0
KCA1 111615Z 20009KT 31/19 A3008 RMK A01 T03100192  RH  050%=      5-min Rain = 0
KCA1 111616Z 21008KT 31/19 A3008 RMK A01 T03110189  RH  048%=      5-min Rain = 0
KCA1 111617Z 21006KT 31/19 A3008 RMK A01 T03100188  RH  048%=      5-min Rain = 0
KCA1 111618Z 18008KT 31/19 A3008 RMK A01 T03100189  RH  049%=      5-min Rain = 0
KCA1 111619Z 19011KT 31/19 A3008 RMK A01 T03100189  RH  048%=      5-min Rain = 0
KCA1 111620Z 18008KT 31/19 A3008 RMK A01 T03090189  RH  049%=      5-min Rain = 0
KCA1 111621Z 19006KT 31/19 A3008 RMK A01 T03080190  RH  049%=      5-min Rain = 0
KCA1 111622Z 19009KT 31/19 A3008 RMK A01 T03080192  RH  050%=      5-min Rain = 0
KCA1 111623Z 19009KT 31/19 A3008 RMK A01 T03100191  RH  049%=      5-min Rain = 0
KCA1 111624Z 20009KT 31/19 A3008 RMK A01 T03120189  RH  048%=      5-min Rain = 0
KCA1 111625Z 21008KT 31/19 A3008 RMK A01 T03120188  RH  048%=      5-min Rain = 0
KCA1 111626Z 19007KT 31/19 A3008 RMK A01 T03110188  RH  048%=      5-min Rain = 0
KCA1 111627Z 22008KT 31/19 A3008 RMK A01 T03100189  RH  049%=      5-min Rain = 0
KCA1 111628Z 21009KT 31/19 A3008 RMK A01 T03110190  RH  049%=      5-min Rain = 0
KCA1 111629Z 21009KT 31/19 A3008 RMK A01 T03120189  RH  048%=      5-min Rain = 0
KCA1 111630Z 22009KT 31/19 A3008 RMK A01 T03130188  RH  047%=      5-min Rain = 0
KCA1 111631Z 21006KT 31/19 A3008 RMK A01 T03110189  RH  048%=      5-min Rain = 0
KCA1 111632Z 21007KT 31/19 A3008 RMK A01 T03110186  RH  047%=      5-min Rain = 0
KCA1 111633Z 22007KT 31/19 A3008 RMK A01 T03120186  RH  047%=      5-min Rain = 0
KCA1 111634Z 22008KT 31/19 A3008 RMK A01 T03110187  RH  048%=      5-min Rain = 0
KCA1 111635Z 21006KT 31/19 A3008 RMK A01 T03130188  RH  047%=      5-min Rain = 0
KCA1 111636Z 21007KT 31/19 A3009 RMK A01 T03140188  RH  047%=      5-min Rain = 0
KCA1 111637Z 21010KT 32/19 A3009 RMK A01 T03150190  RH  047%=      5-min Rain = 0
KCA1 111638Z 20010KT 32/19 A3008 RMK A01 T03170186  RH  046%=      5-min Rain = 0
KCA1 111639Z 20005KT 32/19 A3008 RMK A01 T03160185  RH  046%=      5-min Rain = 0
KCA1 111640Z 21007KT 32/19 A3008 RMK A01 T03160187  RH  047%=      5-min Rain = 0
KCA1 111641Z 23006KT 32/19 A3008 RMK A01 T03150186  RH  046%=      5-min Rain = 0
KCA1 111642Z 21006KT 31/18 A3008 RMK A01 T03140184  RH  046%=      5-min Rain = 0
KCA1 111643Z 20007G14KT 31/19 A3008 RMK A01 T03130185  RH  047%=      5-min Rain = 0
KCA1 111644Z 20012KT 31/18 A3008 RMK A01 T03130184  RH  046%=      5-min Rain = 0
KCA1 111645Z 20009G14KT 32/19 A3008 RMK A01 T03160187  RH  046%=      5-min Rain = 0
KCA1 111646Z 21013KT 32/19 A3008 RMK A01 T03200185  RH  045%=      5-min Rain = 0
KCA1 111647Z 21011KT 32/19 A3008 RMK A01 T03200185  RH  045%=      5-min Rain = 0
KCA1 111648Z 21009KT 32/19 A3008 RMK A01 T03210188  RH  045%=      5-min Rain = 0
KCA1 111649Z 22010KT 32/19 A3008 RMK A01 T03230185  RH  044%=      5-min Rain = 0
KCA1 111650Z 22009KT 32/18 A3008 RMK A01 T03200183  RH  044%=      5-min Rain = 0
KCA1 111651Z 21010KT 32/19 A3008 RMK A01 T03200187  RH  045%=      5-min Rain = 0
KCA1 111652Z 21009KT 32/18 A3008 RMK A01 T03230184  RH  044%=      5-min Rain = 0
KCA1 111653Z 21009KT 32/18 A3008 RMK A01 T03230183  RH  044%=      5-min Rain = 0
KCA1 111654Z 19009KT 32/18 A3008 RMK A01 T03230180  RH  043%=      5-min Rain = 0
KCA1 111655Z 19009KT 32/18 A3008 RMK A01 T03220177  RH  042%=      5-min Rain = 0
KCA1 111656Z 18008KT 32/18 A3008 RMK A01 T03210175  RH  042%=      5-min Rain = 0
KCA1 111657Z 19008G14KT 32/18 A3008 RMK A01 T03200176  RH  042%=      5-min Rain = 0
KCA1 111658Z 20013KT 32/18 A3008 RMK A01 T03220179  RH  043%=      5-min Rain = 0
KCA1 111659Z 20010KT 32/18 A3008 RMK A01 T03220180  RH  043%=      5-min Rain = 0
KCA1 111700Z 18009KT 32/18 A3008 RMK A01 T03230181  RH  043%=      5-min Rain = 0
KCA1 111701Z 18007KT 32/18 A3008 RMK A01 T03220180  RH  043%=      5-min Rain = 0
KCA1 111702Z 17010KT 32/18 A3008 RMK A01 T03220181  RH  043%=      5-min Rain = 0
KCA1 111703Z 17008KT 32/18 A3008 RMK A01 T03230179  RH  042%=      5-min Rain = 0
KCA1 111704Z 17009KT 32/18 A3008 RMK A01 T03220180  RH  043%=      5-min Rain = 0
KCA1 111705Z 18007G12KT 32/18 A3008 RMK A01 T03240180  RH  042%=      5-min Rain = 0
KCA1 111706Z 17010KT 33/18 A3008 RMK A01 T03250179  RH  042%=      5-min Rain = 0
KCA1 111707Z 17009KT 33/18 A3008 RMK A01 T03250179  RH  042%=      5-min Rain = 0
KCA1 111708Z 16006KT 32/18 A3008 RMK A01 T03210182  RH  044%=      5-min Rain = 0
KCA1 111709Z 18009KT 32/19 A3008 RMK A01 T03240185  RH  044%=      5-min Rain = 0
KCA1 111710Z 19007KT 33/18 A3008 RMK A01 T03270182  RH  042%=      5-min Rain = 0
KCA1 111711Z 19008KT 33/18 A3008 RMK A01 T03270183  RH  043%=      5-min Rain = 0
KCA1 111712Z 21008KT 33/19 A3008 RMK A01 T03280185  RH  043%=      5-min Rain = 0
KCA1 111713Z 20011KT 33/18 A3007 RMK A01 T03280180  RH  042%=      5-min Rain = 0
KCA1 111714Z 21010KT 33/18 A3007 RMK A01 T03260183  RH  043%=      5-min Rain = 0
KCA1 111715Z 20008KT 33/18 A3007 RMK A01 T03250183  RH  043%=      5-min Rain = 0
KCA1 111716Z 18009KT 33/18 A3007 RMK A01 T03260182  RH  042%=      5-min Rain = 0
KCA1 111717Z 17010KT 33/18 A3007 RMK A01 T03270180  RH  042%=      5-min Rain = 0
KCA1 111718Z 17012KT 33/18 A3007 RMK A01 T03290179  RH  041%=      5-min Rain = 0
KCA1 111719Z 19008KT 33/18 A3007 RMK A01 T03310179  RH  041%=      5-min Rain = 0
KCA1 111720Z 21008KT 33/18 A3008 RMK A01 T03330179  RH  040%=      5-min Rain = 0
KCA1 111721Z 19004KT 33/18 A3008 RMK A01 T03330178  RH  040%=      5-min Rain = 0
KCA1 111722Z 18006KT 33/18 A3007 RMK A01 T03330179  RH  040%=      5-min Rain = 0
KCA1 111723Z 17006KT 33/18 A3007 RMK A01 T03330178  RH  040%=      5-min Rain = 0
KCA1 111724Z 20009KT 33/18 A3007 RMK A01 T03330180  RH  040%=      5-min Rain = 0
KCA1 111725Z 21010KT 33/17 A3007 RMK A01 T03310174  RH  039%=      5-min Rain = 0
KCA1 111726Z 19010KT 33/18 A3007 RMK A01 T03290176  RH  040%=      5-min Rain = 0
KCA1 111727Z 19011KT 33/17 A3007 RMK A01 T03300172  RH  039%=      5-min Rain = 0
KCA1 111728Z 19008KT 33/17 A3007 RMK A01 T03300173  RH  039%=      5-min Rain = 0
KCA1 111729Z 17006KT 33/18 A3007 RMK A01 T03290176  RH  040%=      5-min Rain = 0
KCA1 111730Z 16008KT 33/18 A3007 RMK A01 T03290177  RH  040%=      5-min Rain = 0
KCA1 111731Z 17005KT 33/18 A3007 RMK A01 T03290177  RH  040%=      5-min Rain = 0
KCA1 111732Z 18006KT 33/18 A3007 RMK A01 T03270179  RH  041%=      5-min Rain = 0
KCA1 111733Z 18007KT 33/18 A3007 RMK A01 T03270180  RH  042%=      5-min Rain = 0
KCA1 111734Z 16007KT 33/18 A3007 RMK A01 T03250180  RH  042%=      5-min Rain = 0
KCA1 111735Z 16009KT 33/18 A3007 RMK A01 T03260181  RH  042%=      5-min Rain = 0
KCA1 111736Z 15009G14KT 33/18 A3007 RMK A01 T03290175  RH  040%=      5-min Rain = 0
KCA1 111737Z 14009KT 33/18 A3007 RMK A01 T03290176  RH  040%=      5-min Rain = 0
KCA1 111738Z 16009KT 33/18 A3007 RMK A01 T03300178  RH  041%=      5-min Rain = 0
KCA1 111739Z 16008KT 33/17 A3007 RMK A01 T03310174  RH  039%=      5-min Rain = 0
KCA1 111740Z 16008KT 33/18 A3007 RMK A01 T03310175  RH  040%=      5-min Rain = 0
KCA1 111741Z 16009KT 33/17 A3007 RMK A01 T03310173  RH  039%=      5-min Rain = 0
KCA1 111742Z 17007KT 33/17 A3007 RMK A01 T03310166  RH  037%=      5-min Rain = 0
KCA1 111743Z 16007KT 33/17 A3007 RMK A01 T03310169  RH  038%=      5-min Rain = 0
KCA1 111744Z 17012KT 33/18 A3007 RMK A01 T03310175  RH  040%=      5-min Rain = 0
KCA1 111745Z 17012KT 33/18 A3007 RMK A01 T03310176  RH  040%=      5-min Rain = 0
KCA1 111746Z 16009KT 33/18 A3007 RMK A01 T03310179  RH  040%=      5-min Rain = 0
KCA1 111747Z 19006KT 33/18 A3007 RMK A01 T03330181  RH  040%=      5-min Rain = 0
KCA1 111748Z 18005KT 33/18 A3007 RMK A01 T03340183  RH  041%=      5-min Rain = 0
KCA1 111749Z 21006KT 33/18 A3007 RMK A01 T03340183  RH  041%=      5-min Rain = 0
KCA1 111750Z 21005KT 33/18 A3007 RMK A01 T03340180  RH  040%=      5-min Rain = 0
KCA1 111751Z 21006KT 33/18 A3007 RMK A01 T03320182  RH  041%=      5-min Rain = 0
KCA1 111752Z 20009KT 33/18 A3007 RMK A01 T03330181  RH  041%=      5-min Rain = 0
KCA1 111753Z 17008KT 34/18 A3007 RMK A01 T03350182  RH  040%=      5-min Rain = 0
KCA1 111754Z 17011KT 34/18 A3007 RMK A01 T03370181  RH  040%=      5-min Rain = 0
KCA1 111755Z 18008G13KT 34/18 A3007 RMK A01 T03380177  RH  038%=      5-min Rain = 0
KCA1 111756Z 16008KT 34/18 A3007 RMK A01 T03390177  RH  038%=      5-min Rain = 0
KCA1 111757Z 16008KT 34/18 A3007 RMK A01 T03390175  RH  038%=      5-min Rain = 0
KCA1 111758Z 16007KT 33/17 A3007 RMK A01 T03330173  RH  038%=      5-min Rain = 0
KCA1 111759Z 18006KT 33/18 A3007 RMK A01 T03280176  RH  040%=      5-min Rain = 0
KCA1 111800Z 17007KT 33/18 A3007 RMK A01 T03250178  RH  042%=      5-min Rain = 0
KCA1 111801Z 19007KT 33/18 A3006 RMK A01 T03250182  RH  043%=      5-min Rain = 0
KCA1 111802Z 20011KT 33/18 A3006 RMK A01 T03280180  RH  042%=      5-min Rain = 0
KCA1 111803Z 19009KT 33/18 A3006 RMK A01 T03300180  RH  041%=      5-min Rain = 0
KCA1 111804Z 20008KT 33/18 A3006 RMK A01 T03310183  RH  042%=      5-min Rain = 0
KCA1 111805Z 18008KT 33/18 A3006 RMK A01 T03330182  RH  041%=      5-min Rain = 0
KCA1 111806Z 17010KT 34/18 A3006 RMK A01 T03360176  RH  039%=      5-min Rain = 0
KCA1 111807Z 19007KT 34/18 A3006 RMK A01 T03370178  RH  039%=      5-min Rain = 0
KCA1 111808Z 20008KT 34/18 A3006 RMK A01 T03370182  RH  040%=      5-min Rain = 0
KCA1 111809Z 20009KT 34/18 A3006 RMK A01 T03380180  RH  039%=      5-min Rain = 0
KCA1 111810Z 19006KT 34/18 A3006 RMK A01 T03380177  RH  038%=      5-min Rain = 0
KCA1 111811Z 19010KT 34/18 A3006 RMK A01 T03380179  RH  039%=      5-min Rain = 0
KCA1 111812Z 20010KT 34/18 A3006 RMK A01 T03370180  RH  039%=      5-min Rain = 0
KCA1 111813Z 20015KT 34/18 A3006 RMK A01 T03390183  RH  040%=      5-min Rain = 0
KCA1 111814Z 19013KT 34/18 A3006 RMK A01 T03410180  RH  039%=      5-min Rain = 0
KCA1 111815Z 20009KT 34/18 A3006 RMK A01 T03380177  RH  038%=      5-min Rain = 0
KCA1 111816Z 20008KT 34/18 A3006 RMK A01 T03350176  RH  039%=      5-min Rain = 0
KCA1 111817Z 18009KT 33/18 A3006 RMK A01 T03320176  RH  039%=      5-min Rain = 0
KCA1 111818Z 18008KT 33/17 A3006 RMK A01 T03300173  RH  039%=      5-min Rain = 0
KCA1 111819Z 18008KT 33/18 A3006 RMK A01 T03290175  RH  040%=      5-min Rain = 0
KCA1 111820Z 17011KT 33/18 A3006 RMK A01 T03320175  RH  039%=      5-min Rain = 0
KCA1 111821Z 17009KT 34/17 A3006 RMK A01 T03350174  RH  038%=      5-min Rain = 0
KCA1 111822Z 17009KT 34/18 A3006 RMK A01 T03390178  RH  038%=      5-min Rain = 0
KCA1 111823Z 17010KT 34/17 A3006 RMK A01 T03390171  RH  037%=      5-min Rain = 0
KCA1 111824Z 19009KT 34/17 A3006 RMK A01 T03360173  RH  038%=      5-min Rain = 0
KCA1 111825Z 19009KT 34/18 A3006 RMK A01 T03370178  RH  039%=      5-min Rain = 0
KCA1 111826Z 17011KT 34/17 A3006 RMK A01 T03390173  RH  037%=      5-min Rain = 0
KCA1 111827Z 15012KT 34/17 A3006 RMK A01 T03410171  RH  036%=      5-min Rain = 0
KCA1 111828Z 16011KT 34/17 A3006 RMK A01 T03430173  RH  037%=      5-min Rain = 0
KCA1 111829Z 15009KT 34/17 A3006 RMK A01 T03440173  RH  036%=      5-min Rain = 0
KCA1 111830Z 17007KT 34/18 A3006 RMK A01 T03420175  RH  037%=      5-min Rain = 0
KCA1 111831Z 18008KT 34/17 A3005 RMK A01 T03390174  RH  038%=      5-min Rain = 0
KCA1 111832Z 17012KT 34/17 A3005 RMK A01 T03370173  RH  038%=      5-min Rain = 0
KCA1 111833Z 19011KT 34/17 A3005 RMK A01 T03380170  RH  037%=      5-min Rain = 0
KCA1 111834Z 17010KT 34/17 A3005 RMK A01 T03390169  RH  036%=      5-min Rain = 0
KCA1 111835Z 17014KT 34/17 A3005 RMK A01 T03410173  RH  037%=      5-min Rain = 0
KCA1 111836Z 17011KT 34/17 A3005 RMK A01 T03420170  RH  036%=      5-min Rain = 0
KCA1 111837Z 16010KT 34/17 A3005 RMK A01 T03420170  RH  036%=      5-min Rain = 0
KCA1 111838Z 19011KT 34/17 A3005 RMK A01 T03410171  RH  036%=      5-min Rain = 0
KCA1 111839Z 21011KT 34/17 A3005 RMK A01 T03410171  RH  036%=      5-min Rain = 0
KCA1 111840Z 21010KT 34/17 A3005 RMK A01 T03420170  RH  036%=      5-min Rain = 0
KCA1 111841Z 19012KT 34/17 A3005 RMK A01 T03410169  RH  036%=      5-min Rain = 0
KCA1 111842Z 19015KT 34/17 A3005 RMK A01 T03410168  RH  036%=      5-min Rain = 0
KCA1 111843Z 18015KT 34/17 A3005 RMK A01 T03420169  RH  036%=      5-min Rain = 0
KCA1 111844Z 18012KT 34/17 A3005 RMK A01 T03440171  RH  036%=      5-min Rain = 0
KCA1 111845Z 19012KT 34/17 A3005 RMK A01 T03440173  RH  036%=      5-min Rain = 0
KCA1 111846Z 19012KT 34/17 A3005 RMK A01 T03440174  RH  037%=      5-min Rain = 0
KCA1 111847Z 18012KT 34/17 A3005 RMK A01 T03440174  RH  036%=      5-min Rain = 0
KCA1 111848Z 18010KT 34/17 A3005 RMK A01 T03430174  RH  037%=      5-min Rain = 0
KCA1 111849Z 18008KT 34/18 A3005 RMK A01 T03430175  RH  037%=      5-min Rain = 0
KCA1 111850Z 17010KT 34/18 A3005 RMK A01 T03440175  RH  037%=      5-min Rain = 0
KCA1 111851Z 17008KT 34/17 A3005 RMK A01 T03400173  RH  037%=      5-min Rain = 0
KCA1 111852Z 18007KT 34/17 A3005 RMK A01 T03350173  RH  038%=      5-min Rain = 0
KCA1 111853Z 20008KT 33/18 A3005 RMK A01 T03320175  RH  039%=      5-min Rain = 0
KCA1 111854Z 19009KT 33/17 A3005 RMK A01 T03310174  RH  039%=      5-min Rain = 0
KCA1 111855Z 19009KT 33/17 A3005 RMK A01 T03320172  RH  039%=      5-min Rain = 0
KCA1 111856Z 19008KT 33/17 A3005 RMK A01 T03340172  RH  038%=      5-min Rain = 0
KCA1 111857Z 20009KT 34/17 A3005 RMK A01 T03370173  RH  038%=      5-min Rain = 0
KCA1 111858Z 20011KT 34/17 A3005 RMK A01 T03410173  RH  037%=      5-min Rain = 0
KCA1 111859Z 21009KT 34/17 A3005 RMK A01 T03420168  RH  036%=      5-min Rain = 0
KCA1 111900Z 17014KT 34/17 A3005 RMK A01 T03430173  RH  036%=      5-min Rain = 0
KCA1 111901Z 16011KT 35/17 A3005 RMK A01 T03450171  RH  035%=      5-min Rain = 0
KCA1 111902Z 18011KT 35/17 A3005 RMK A01 T03450170  RH  035%=      5-min Rain = 0
KCA1 111903Z 18007KT 34/17 A3005 RMK A01 T03420169  RH  036%=      5-min Rain = 0
KCA1 111904Z 17007KT 34/17 A3005 RMK A01 T03390169  RH  036%=      5-min Rain = 0
KCA1 111905Z 17008KT 34/17 A3005 RMK A01 T03380169  RH  036%=      5-min Rain = 0
KCA1 111906Z 19013KT 34/17 A3004 RMK A01 T03390169  RH  036%=      5-min Rain = 0
KCA1 111907Z 18012KT 34/17 A3004 RMK A01 T03440167  RH  035%=      5-min Rain = 0
KCA1 111908Z 19012KT 35/17 A3004 RMK A01 T03480168  RH  034%=      5-min Rain = 0
KCA1 111909Z 18010KT 35/17 A3004 RMK A01 T03490169  RH  034%=      5-min Rain = 0
KCA1 111910Z 19008KT 35/17 A3004 RMK A01 T03490173  RH  035%=      5-min Rain = 0
KCA1 111911Z 19007KT 35/17 A3004 RMK A01 T03510169  RH  034%=      5-min Rain = 0
KCA1 111912Z 18009KT 35/17 A3004 RMK A01 T03490172  RH  035%=      5-min Rain = 0
KCA1 111913Z 17010KT 35/17 A3004 RMK A01 T03480173  RH  035%=      5-min Rain = 0
KCA1 111914Z 17006KT 35/17 A3004 RMK A01 T03500174  RH  035%=      5-min Rain = 0
KCA1 111915Z 19010KT 35/18 A3004 RMK A01 T03510175  RH  035%=      5-min Rain = 0
KCA1 111916Z 19010KT 35/17 A3004 RMK A01 T03510174  RH  035%=      5-min Rain = 0
KCA1 111917Z 19009KT 35/17 A3004 RMK A01 T03510174  RH  035%=      5-min Rain = 0
KCA1 111918Z 20009KT 35/17 A3004 RMK A01 T03520172  RH  035%=      5-min Rain = 0
KCA1 111919Z 21012G17KT 35/17 A3004 RMK A01 T03500170  RH  034%=      5-min Rain = 0
KCA1 111920Z 20013KT 35/17 A3004 RMK A01 T03490167  RH  034%=      5-min Rain = 0
KCA1 111921Z 16011KT 35/17 A3004 RMK A01 T03490166  RH  034%=      5-min Rain = 0
KCA1 111922Z 19010KT 35/17 A3004 RMK A01 T03500168  RH  034%=      5-min Rain = 0
KCA1 111923Z 18010KT 35/16 A3004 RMK A01 T03500162  RH  033%=      5-min Rain = 0
KCA1 111924Z 19007KT 35/16 A3004 RMK A01 T03470164  RH  034%=      5-min Rain = 0
KCA1 111925Z 16008KT 35/16 A3004 RMK A01 T03450162  RH  033%=      5-min Rain = 0
KCA1 111926Z 18009KT 34/16 A3004 RMK A01 T03430162  RH  034%=      5-min Rain = 0
KCA1 111927Z 17013G18KT 35/17 A3004 RMK A01 T03460166  RH  034%=      5-min Rain = 0
KCA1 111928Z 16014KT 35/16 A3004 RMK A01 T03500163  RH  033%=      5-min Rain = 0
KCA1 111929Z 18015KT 35/17 A3004 RMK A01 T03500167  RH  034%=      5-min Rain = 0
KCA1 111930Z 17013KT 35/16 A3004 RMK A01 T03500163  RH  033%=      5-min Rain = 0
KCA1 111931Z 17013KT 35/16 A3004 RMK A01 T03490164  RH  033%=      5-min Rain = 0
KCA1 111932Z 16012KT 35/17 A3004 RMK A01 T03480165  RH  034%=      5-min Rain = 0
KCA1 111933Z 16013KT 35/17 A3004 RMK A01 T03490166  RH  034%=      5-min Rain = 0
KCA1 111934Z 17009KT 35/17 A3004 RMK A01 T03500168  RH  034%=      5-min Rain = 0
KCA1 111935Z 16010KT 35/16 A3004 RMK A01 T03500162  RH  033%=      5-min Rain = 0
KCA1 111936Z 16010KT 35/17 A3004 RMK A01 T03470167  RH  034%=      5-min Rain = 0
KCA1 111937Z 16010KT 35/16 A3004 RMK A01 T03450164  RH  034%=      5-min Rain = 0
KCA1 111938Z 16009KT 34/16 A3004 RMK A01 T03430164  RH  035%=      5-min Rain = 0
KCA1 111939Z 18009KT 34/17 A3004 RMK A01 T03430167  RH  035%=      5-min Rain = 0
KCA1 111940Z 20012KT 35/17 A3004 RMK A01 T03460167  RH  035%=      5-min Rain = 0
KCA1 111941Z 20012KT 35/17 A3004 RMK A01 T03490170  RH  035%=      5-min Rain = 0
KCA1 111942Z 21012KT 35/17 A3004 RMK A01 T03510170  RH  034%=      5-min Rain = 0
KCA1 111943Z 20011KT 35/17 A3004 RMK A01 T03510166  RH  033%=      5-min Rain = 0
KCA1 111944Z 19011KT 35/17 A3004 RMK A01 T03510168  RH  034%=      5-min Rain = 0
KCA1 111945Z 19011KT 35/16 A3003 RMK A01 T03520164  RH  033%=      5-min Rain = 0
KCA1 111946Z 19013G18KT 35/17 A3003 RMK A01 T03520167  RH  033%=      5-min Rain = 0
KCA1 111947Z 18014KT 35/16 A3003 RMK A01 T03490162  RH  033%=      5-min Rain = 0
KCA1 111948Z 18009KT 35/16 A3003 RMK A01 T03460158  RH  033%=      5-min Rain = 0
KCA1 111949Z 19010KT 34/16 A3003 RMK A01 T03440160  RH  033%=      5-min Rain = 0
KCA1 111950Z 18014KT 34/16 A3003 RMK A01 T03440160  RH  034%=      5-min Rain = 0
KCA1 111951Z 17017G22KT 35/16 A3003 RMK A01 T03450161  RH  033%=      5-min Rain = 0
KCA1 111952Z 17017KT 35/16 A3003 RMK A01 T03470160  RH  033%=      5-min Rain = 0
KCA1 111953Z 17015KT 35/16 A3003 RMK A01 T03490161  RH  033%=      5-min Rain = 0
KCA1 111954Z 18013KT 35/16 A3003 RMK A01 T03490158  RH  032%=      5-min Rain = 0
KCA1 111955Z 19012KT 35/16 A3003 RMK A01 T03500156  RH  031%=      5-min Rain = 0
KCA1 111956Z 21013KT 35/16 A3003 RMK A01 T03500159  RH  032%=      5-min Rain = 0
KCA1 111957Z 19011KT 35/16 A3003 RMK A01 T03510159  RH  032%=      5-min Rain = 0
KCA1 111958Z 18008KT 35/16 A3003 RMK A01 T03520156  RH  031%=      5-min Rain = 0
KCA1 111959Z 19011G17KT 35/16 A3003 RMK A01 T03530159  RH  032%=      5-min Rain = 0
KCA1 112000Z 19011G17KT 36/16 A3003 RMK A01 T03550160  RH  031%=      5-min Rain = 0
KCA1 112001Z 20014KT 36/16 A3003 RMK A01 T03560159  RH  031%=      5-min Rain = 0
KCA1 112002Z 21013KT 35/16 A3003 RMK A01 T03540161  RH  032%=      5-min Rain = 0
KCA1 112003Z 20013KT 35/16 A3003 RMK A01 T03540157  RH  031%=      5-min Rain = 0
KCA1 112004Z 20010KT 35/16 A3003 RMK A01 T03530160  RH  032%=      5-min Rain = 0
KCA1 112005Z 20013KT 36/16 A3003 RMK A01 T03570162  RH  032%=      5-min Rain = 0
KCA1 112006Z 20009KT 36/16 A3003 RMK A01 T03550159  RH  031%=      5-min Rain = 0
KCA1 112007Z 19010KT 35/16 A3003 RMK A01 T03540161  RH  032%=      5-min Rain = 0
KCA1 112008Z 18010KT 35/16 A3002 RMK A01 T03540162  RH  032%=      5-min Rain = 0
KCA1 112009Z 18010KT 35/16 A3002 RMK A01 T03540162  RH  032%=      5-min Rain = 0
KCA1 112010Z 18011KT 35/16 A3002 RMK A01 T03540162  RH  032%=      5-min Rain = 0
KCA1 112011Z 18014KT 35/16 A3002 RMK A01 T03540163  RH  032%=      5-min Rain = 0
KCA1 112012Z 18013KT 35/16 A3002 RMK A01 T03540161  RH  032%=      5-min Rain = 0
KCA1 112013Z 16013KT 35/17 A3002 RMK A01 T03530165  RH  033%=      5-min Rain = 0
KCA1 112014Z 17015G20KT 36/17 A3002 RMK A01 T03560168  RH  033%=      5-min Rain = 0
KCA1 112015Z 16014KT 36/17 A3002 RMK A01 T03570165  RH  032%=      5-min Rain = 0
KCA1 112016Z 16015KT 36/17 A3002 RMK A01 T03550165  RH  032%=      5-min Rain = 0
KCA1 112017Z 16013KT 35/16 A3002 RMK A01 T03520164  RH  033%=      5-min Rain = 0
KCA1 112018Z 16012KT 35/16 A3002 RMK A01 T03480163  RH  033%=      5-min Rain = 0
KCA1 112019Z 15012KT 35/16 A3002 RMK A01 T03460162  RH  034%=      5-min Rain = 0
KCA1 112020Z 16011KT 35/16 A3002 RMK A01 T03460162  RH  033%=      5-min Rain = 0
KCA1 112021Z 17012KT 35/16 A3002 RMK A01 T03480161  RH  033%=      5-min Rain = 0
KCA1 112022Z 18011KT 35/16 A3002 RMK A01 T03500162  RH  033%=      5-min Rain = 0
KCA1 112023Z 18011KT 35/16 A3002 RMK A01 T03540157  RH  031%=      5-min Rain = 0
KCA1 112024Z 19010KT 35/16 A3002 RMK A01 T03530156  RH  031%=      5-min Rain = 0
KCA1 112025Z 20011KT 35/16 A3002 RMK A01 T03500156  RH  031%=      5-min Rain = 0
KCA1 112026Z 19010KT 35/16 A3002 RMK A01 T03490159  RH  032%=      5-min Rain = 0
KCA1 112027Z 21010KT 35/16 A3002 RMK A01 T03520161  RH  032%=      5-min Rain = 0
KCA1 112028Z 21012KT 35/16 A3002 RMK A01 T03510160  RH  032%=      5-min Rain = 0
KCA1 112029Z 21011KT 35/16 A3002 RMK A01 T03470158  RH  032%=      5-min Rain = 0
KCA1 112030Z 19013KT 34/16 A3001 RMK A01 T03440158  RH  033%=      5-min Rain = 0
KCA1 112031Z 18012G18KT 35/16 A3002 RMK A01 T03450163  RH  034%=      5-min Rain = 0
KCA1 112032Z 18014G20KT 35/16 A3001 RMK A01 T03520164  RH  033%=      5-min Rain = 0
KCA1 112033Z 19012KT 35/16 A3002 RMK A01 T03540161  RH  032%=      5-min Rain = 0
KCA1 112034Z 21012KT 36/16 A3002 RMK A01 T03550164  RH  032%=      5-min Rain = 0
KCA1 112035Z 19011KT 36/17 A3002 RMK A01 T03570166  RH  032%=      5-min Rain = 0
KCA1 112036Z 19012KT 36/17 A3002 RMK A01 T03600165  RH  032%=      5-min Rain = 0
KCA1 112037Z 16011KT 36/17 A3002 RMK A01 T03600167  RH  032%=      5-min Rain = 0
KCA1 112038Z 16013KT 36/16 A3002 RMK A01 T03550163  RH  032%=      5-min Rain = 0
KCA1 112039Z 15012KT 35/16 A3002 RMK A01 T03490162  RH  033%=      5-min Rain = 0
KCA1 112040Z 15011KT 35/16 A3001 RMK A01 T03490164  RH  033%=      5-min Rain = 0
KCA1 112041Z 14008KT 35/16 A3001 RMK A01 T03520164  RH  033%=      5-min Rain = 0
KCA1 112042Z 15010KT 36/17 A3001 RMK A01 T03560166  RH  033%=      5-min Rain = 0
KCA1 112043Z 15012KT 36/17 A3001 RMK A01 T03580165  RH  032%=      5-min Rain = 0
KCA1 112044Z 16014KT 36/17 A3001 RMK A01 T03580165  RH  032%=      5-min Rain = 0
KCA1 112045Z 17012KT 36/17 A3001 RMK A01 T03580166  RH  032%=      5-min Rain = 0
KCA1 112046Z 18013KT 36/16 A3001 RMK A01 T03580163  RH  032%=      5-min Rain = 0
KCA1 112047Z 17015KT 36/16 A3001 RMK A01 T03560162  RH  032%=      5-min Rain = 0
KCA1 112048Z 17013KT 35/16 A3001 RMK A01 T03490158  RH  032%=      5-min Rain = 0
KCA1 112049Z 17013KT 34/16 A3001 RMK A01 T03440157  RH  033%=      5-min Rain = 0
KCA1 112050Z 18013KT 34/16 A3001 RMK A01 T03400157  RH  033%=      5-min Rain = 0
KCA1 112051Z 19011KT 34/16 A3001 RMK A01 T03390160  RH  034%=      5-min Rain = 0
KCA1 112052Z 19010KT 34/16 A3001 RMK A01 T03430163  RH  034%=      5-min Rain = 0
KCA1 112053Z 18011KT 35/16 A3001 RMK A01 T03490163  RH  033%=      5-min Rain = 0
KCA1 112054Z 17014KT 35/16 A30 RMK A01 T03520164  RH  033%=      5-min Rain = 0
KCA1 112055Z 17017KT 35/16 A30 RMK A01 T03540164  RH  032%=      5-min Rain = 0
KCA1 112056Z 19014KT 36/16 A30 RMK A01 T03550164  RH  032%=      5-min Rain = 0
KCA1 112057Z 20014KT 35/16 A30 RMK A01 T03540162  RH  032%=      5-min Rain = 0
KCA1 112058Z 21013KT 35/16 A30 RMK A01 T03520160  RH  032%=      5-min Rain = 0
KCA1 112059Z 20011KT 35/16 A30 RMK A01 T03510160  RH  032%=      5-min Rain = 0
KCA1 112100Z 19009KT 35/16 A30 RMK A01 T03520162  RH  032%=      5-min Rain = 0
KCA1 112101Z 19011KT 35/16 A30 RMK A01 T03530162  RH  032%=      5-min Rain = 0
KCA1 112102Z 18014KT 35/16 A30 RMK A01 T03540161  RH  032%=      5-min Rain = 0
KCA1 112103Z 17013KT 35/16 A30 RMK A01 T03540158  RH  031%=      5-min Rain = 0
KCA1 112104Z 17013KT 35/16 A30 RMK A01 T03540159  RH  032%=      5-min Rain = 0
KCA1 112105Z 17014KT 36/16 A30 RMK A01 T03550158  RH  031%=      5-min Rain = 0
KCA1 112106Z 15011KT 35/16 A30 RMK A01 T03530158  RH  031%=      5-min Rain = 0
KCA1 112107Z 16011KT 35/16 A30 RMK A01 T03520158  RH  031%=      5-min Rain = 0
KCA1 112108Z 16008KT 35/16 A30 RMK A01 T03520156  RH  031%=      5-min Rain = 0
KCA1 112109Z 18008KT 35/16 A30 RMK A01 T03520159  RH  032%=      5-min Rain = 0
KCA1 112110Z 18007KT 35/16 A30 RMK A01 T03530158  RH  031%=      5-min Rain = 0
KCA1 112111Z 21009KT 36/16 A30 RMK A01 T03550159  RH  031%=      5-min Rain = 0
KCA1 112112Z 18008KT 36/16 A30 RMK A01 T03550159  RH  031%=      5-min Rain = 0
KCA1 112113Z 16008KT 36/16 A30 RMK A01 T03570163  RH  032%=      5-min Rain = 0
KCA1 112114Z 19012KT 36/17 A30 RMK A01 T03620165  RH  031%=      5-min Rain = 0
KCA1 112115Z 18013KT 36/16 A30 RMK A01 T03630161  RH  030%=      5-min Rain = 0
KCA1 112116Z 18012KT 36/16 A30 RMK A01 T03620161  RH  030%=      5-min Rain = 0
KCA1 112117Z 19013KT 36/16 A30 RMK A01 T03610160  RH  030%=      5-min Rain = 0
KCA1 112118Z 17011KT 36/16 A30 RMK A01 T03610161  RH  031%=      5-min Rain = 0
KCA1 112119Z 17016G22KT 36/16 A30 RMK A01 T03620160  RH  030%=      5-min Rain = 0
KCA1 112120Z 17017KT 36/16 A2999 RMK A01 T03620160  RH  030%=      5-min Rain = 0
KCA1 112121Z 17015KT 36/16 A30 RMK A01 T03610161  RH  030%=      5-min Rain = 0
KCA1 112122Z 18013KT 36/16 A30 RMK A01 T03620162  RH  031%=      5-min Rain = 0
KCA1 112123Z 18013KT 37/16 A2999 RMK A01 T03650162  RH  030%=      5-min Rain = 0
KCA1 112124Z 18010KT 36/16 A2999 RMK A01 T03630162  RH  031%=      5-min Rain = 0
KCA1 112125Z 20011KT 36/16 A2999 RMK A01 T03610163  RH  031%=      5-min Rain = 0
KCA1 112126Z 18015KT 36/16 A2999 RMK A01 T03600162  RH  031%=      5-min Rain = 0
KCA1 112127Z 19016KT 36/16 A2999 RMK A01 T03590161  RH  031%=      5-min Rain = 0
KCA1 112128Z 19012KT 36/16 A2999 RMK A01 T03570161  RH  031%=      5-min Rain = 0
KCA1 112129Z 18011KT 36/16 A2999 RMK A01 T03560160  RH  031%=      5-min Rain = 0
KCA1 112130Z 17012KT 36/16 A2999 RMK A01 T03550164  RH  032%=      5-min Rain = 0
KCA1 112131Z 17012KT 35/16 A2999 RMK A01 T03540161  RH  032%=      5-min Rain = 0
KCA1 112132Z 15013KT 35/16 A2999 RMK A01 T03490155  RH  032%=      5-min Rain = 0
KCA1 112133Z 17011G18KT 35/16 A2999 RMK A01 T03460157  RH  032%=      5-min Rain = 0
KCA1 112134Z 16014KT 35/15 A2999 RMK A01 T03490153  RH  031%=      5-min Rain = 0
KCA1 112135Z 16015KT 35/16 A2999 RMK A01 T03520155  RH  031%=      5-min Rain = 0
KCA1 112136Z 16014KT 36/15 A2999 RMK A01 T03550154  RH  030%=      5-min Rain = 0
KCA1 112137Z 16012G17KT 36/16 A2999 RMK A01 T03560155  RH  030%=      5-min Rain = 0
KCA1 112138Z 18015G23KT 36/16 A2999 RMK A01 T03560158  RH  031%=      5-min Rain = 0
KCA1 112139Z 18016G24KT 36/16 A2999 RMK A01 T03570159  RH  031%=      5-min Rain = 0
KCA1 112140Z 17014KT 36/16 A2999 RMK A01 T03560161  RH  031%=      5-min Rain = 0
KCA1 112141Z 16013KT 36/16 A2999 RMK A01 T03560159  RH  031%=      5-min Rain = 0
KCA1 112142Z 16013KT 36/16 A2999 RMK A01 T03550158  RH  031%=      5-min Rain = 0
KCA1 112143Z 17011KT 35/16 A2999 RMK A01 T03540158  RH  031%=      5-min Rain = 0
KCA1 112144Z 17013KT 36/16 A2999 RMK A01 T03550162  RH  032%=      5-min Rain = 0
KCA1 112145Z 16017KT 36/16 A2999 RMK A01 T03580159  RH  031%=      5-min Rain = 0
KCA1 112146Z 16014KT 36/16 A2999 RMK A01 T03570158  RH  031%=      5-min Rain = 0
KCA1 112147Z 17014KT 36/16 A2999 RMK A01 T03570159  RH  031%=      5-min Rain = 0
KCA1 112148Z 20012KT 36/16 A2999 RMK A01 T03570158  RH  031%=      5-min Rain = 0
KCA1 112149Z 20011KT 35/16 A2998 RMK A01 T03540156  RH  031%=      5-min Rain = 0
KCA1 112150Z 18011KT 35/16 A2998 RMK A01 T03510156  RH  031%=      5-min Rain = 0
KCA1 112151Z 15010KT 35/16 A2998 RMK A01 T03500159  RH  032%=      5-min Rain = 0
KCA1 112152Z 15015KT 35/16 A2998 RMK A01 T03500158  RH  032%=      5-min Rain = 0
KCA1 112153Z 16015KT 35/16 A2998 RMK A01 T03520156  RH  031%=      5-min Rain = 0
KCA1 112154Z 17014KT 35/16 A2998 RMK A01 T03520158  RH  032%=      5-min Rain = 0
KCA1 112155Z 18012KT 35/16 A2998 RMK A01 T03530158  RH  031%=      5-min Rain = 0
KCA1 112156Z 19013KT 36/16 A2998 RMK A01 T03550161  RH  032%=      5-min Rain = 0
KCA1 112157Z 20014KT 36/16 A2998 RMK A01 T03570163  RH  032%=      5-min Rain = 0
KCA1 112158Z 20014KT 36/16 A2998 RMK A01 T03560160  RH  031%=      5-min Rain = 0
KCA1 112159Z 20014KT 36/16 A2998 RMK A01 T03550160  RH  031%=      5-min Rain = 0
KCA1 112200Z 20012KT 36/16 A2998 RMK A01 T03550160  RH  031%=      5-min Rain = 0
KCA1 112201Z 21013KT 36/16 A2998 RMK A01 T03550160  RH  031%=      5-min Rain = 0
KCA1 112202Z 21013KT 36/16 A2998 RMK A01 T03550159  RH  031%=      5-min Rain = 0
KCA1 112203Z 21013KT 35/16 A2998 RMK A01 T03540159  RH  031%=      5-min Rain = 0
KCA1 112204Z 21012KT 35/16 A2998 RMK A01 T03530158  RH  031%=      5-min Rain = 0
KCA1 112205Z 20012KT 35/16 A2998 RMK A01 T03530157  RH  031%=      5-min Rain = 0
KCA1 112206Z 19014KT 35/16 A2998 RMK A01 T03520159  RH  032%=      5-min Rain = 0
KCA1 112207Z 19013KT 35/16 A2998 RMK A01 T03530159  RH  032%=      5-min Rain = 0
KCA1 112208Z 18012KT 36/16 A2998 RMK A01 T03550158  RH  031%=      5-min Rain = 0
KCA1 112209Z 18013KT 36/16 A2998 RMK A01 T03550156  RH  031%=      5-min Rain = 0
KCA1 112210Z 18012KT 35/16 A2998 RMK A01 T03540157  RH  031%=      5-min Rain = 0
KCA1 112211Z 17009KT 35/16 A2998 RMK A01 T03530156  RH  031%=      5-min Rain = 0
KCA1 112212Z 18007KT 35/16 A2998 RMK A01 T03530159  RH  031%=      5-min Rain = 0
KCA1 112213Z 17012G20KT 35/16 A2998 RMK A01 T03540158  RH  031%=      5-min Rain = 0
KCA1 112214Z 17015KT 35/16 A2998 RMK A01 T03540157  RH  031%=      5-min Rain = 0
KCA1 112215Z 18014KT 35/16 A2998 RMK A01 T03530157  RH  031%=      5-min Rain = 0
KCA1 112216Z 19012KT 35/16 A2998 RMK A01 T03530155  RH  031%=      5-min Rain = 0
KCA1 112217Z 18012KT 35/16 A2998 RMK A01 T03520158  RH  032%=      5-min Rain = 0
KCA1 112218Z 17010KT 35/16 A2998 RMK A01 T03520159  RH  032%=      5-min Rain = 0
KCA1 112219Z 17009KT 35/16 A2998 RMK A01 T03530160  RH  032%=      5-min Rain = 0
KCA1 112220Z 17011KT 35/16 A2998 RMK A01 T03540161  RH  032%=      5-min Rain = 0
KCA1 112221Z 16013KT 35/16 A2998 RMK A01 T03540159  RH  031%=      5-min Rain = 0
KCA1 112222Z 17014KT 36/16 A2998 RMK A01 T03550159  RH  031%=      5-min Rain = 0
KCA1 112223Z 17013G18KT 36/16 A2998 RMK A01 T03560155  RH  030%=      5-min Rain = 0
KCA1 112224Z 17013KT 36/16 A2998 RMK A01 T03570155  RH  030%=      5-min Rain = 0
KCA1 112225Z 16014KT 36/15 A2997 RMK A01 T03560154  RH  030%=      5-min Rain = 0
KCA1 112226Z 15014KT 36/15 A2998 RMK A01 T03550152  RH  030%=      5-min Rain = 0
KCA1 112227Z 15013KT 35/15 A2997 RMK A01 T03540150  RH  030%=      5-min Rain = 0
KCA1 112228Z 16014KT 35/15 A2997 RMK A01 T03540152  RH  030%=      5-min Rain = 0
KCA1 112229Z 15013KT 35/15 A2997 RMK A01 T03540151  RH  030%=      5-min Rain = 0
KCA1 112230Z 17012KT 35/16 A2997 RMK A01 T03540155  RH  031%=      5-min Rain = 0
KCA1 112231Z 17014KT 36/15 A2997 RMK A01 T03550154  RH  030%=      5-min Rain = 0
KCA1 112232Z 17014KT 35/16 A2997 RMK A01 T03540156  RH  031%=      5-min Rain = 0
KCA1 112233Z 17015KT 35/16 A2997 RMK A01 T03540158  RH  031%=      5-min Rain = 0
KCA1 112234Z 17016KT 35/16 A2997 RMK A01 T03540160  RH  032%=      5-min Rain = 0
KCA1 112235Z 17015KT 35/16 A2997 RMK A01 T03540155  RH  031%=      5-min Rain = 0
KCA1 112236Z 17012KT 35/16 A2997 RMK A01 T03520157  RH  031%=      5-min Rain = 0
KCA1 112237Z 16012KT 35/16 A2997 RMK A01 T03520159  RH  032%=      5-min Rain = 0
KCA1 112238Z 15012KT 35/16 A2997 RMK A01 T03530158  RH  031%=      5-min Rain = 0
KCA1 112239Z 16012KT 35/16 A2997 RMK A01 T03520156  RH  031%=      5-min Rain = 0
KCA1 112240Z 16010KT 35/16 A2997 RMK A01 T03510158  RH  032%=      5-min Rain = 0
KCA1 112241Z 16012KT 35/16 A2997 RMK A01 T03510157  RH  031%=      5-min Rain = 0
KCA1 112242Z 16011KT 35/16 A2997 RMK A01 T03520157  RH  031%=      5-min Rain = 0
KCA1 112243Z 17011KT 35/16 A2997 RMK A01 T03520156  RH  031%=      5-min Rain = 0
KCA1 112244Z 17010KT 35/16 A2997 RMK A01 T03530156  RH  031%=      5-min Rain = 0
KCA1 112245Z 17011G16KT 35/16 A2997 RMK A01 T03520160  RH  032%=      5-min Rain = 0
KCA1 112246Z 15012KT 35/16 A2997 RMK A01 T03520159  RH  032%=      5-min Rain = 0
KCA1 112247Z 17015G21KT 35/16 A2997 RMK A01 T03490159  RH  032%=      5-min Rain = 0
KCA1 112248Z 16015KT 34/16 A2997 RMK A01 T03440158  RH  033%=      5-min Rain = 0
KCA1 112249Z 17013KT 34/16 A2997 RMK A01 T03400157  RH  034%=      5-min Rain = 0
KCA1 112250Z 17014KT 34/16 A2997 RMK A01 T03390159  RH  034%=      5-min Rain = 0
KCA1 112251Z 17015KT 34/16 A2997 RMK A01 T03410158  RH  033%=      5-min Rain = 0
KCA1 112252Z 17011KT 34/16 A2997 RMK A01 T03420159  RH  034%=      5-min Rain = 0
KCA1 112253Z 17011KT 34/16 A2997 RMK A01 T03410160  RH  034%=      5-min Rain = 0
KCA1 112254Z 17010KT 34/16 A2997 RMK A01 T03400161  RH  034%=      5-min Rain = 0
KCA1 112255Z 17009KT 34/16 A2997 RMK A01 T03380160  RH  034%=      5-min Rain = 0
KCA1 112256Z 17011KT 34/16 A2997 RMK A01 T03380160  RH  035%=      5-min Rain = 0
KCA1 112257Z 17012KT 34/16 A2997 RMK A01 T03400156  RH  033%=      5-min Rain = 0
KCA1 112258Z 17009KT 34/16 A2997 RMK A01 T03430158  RH  033%=      5-min Rain = 0
KCA1 112259Z 18010KT 35/16 A2997 RMK A01 T03470162  RH  033%=      5-min Rain = 0
KCA1 112300Z 18011KT 35/16 A2997 RMK A01 T03500157  RH  032%=      5-min Rain = 0
KCA1 112301Z 17011KT 35/16 A2997 RMK A01 T03510159  RH  032%=      5-min Rain = 0
KCA1 112302Z 18009KT 35/16 A2997 RMK A01 T03530157  RH  031%=      5-min Rain = 0
KCA1 112303Z 21008KT 35/16 A2997 RMK A01 T03530155  RH  031%=      5-min Rain = 0
KCA1 112304Z 19012KT 35/16 A2997 RMK A01 T03520159  RH  032%=      5-min Rain = 0
KCA1 112305Z 18010KT 35/16 A2997 RMK A01 T03530161  RH  032%=      5-min Rain = 0
KCA1 112306Z 18008KT 35/16 A2997 RMK A01 T03540161  RH  032%=      5-min Rain = 0
KCA1 112307Z 18011KT 36/16 A2997 RMK A01 T03550160  RH  031%=      5-min Rain = 0
KCA1 112308Z 18012KT 36/16 A2997 RMK A01 T03550157  RH  031%=      5-min Rain = 0
KCA1 112309Z 20012KT 36/16 A2997 RMK A01 T03550159  RH  031%=      5-min Rain = 0
KCA1 112310Z 18012KT 36/16 A2997 RMK A01 T03550155  RH  030%=      5-min Rain = 0
KCA1 112311Z 16009KT 35/16 A2997 RMK A01 T03540158  RH  031%=      5-min Rain = 0
KCA1 112312Z 16009G15KT 35/16 A2997 RMK A01 T03540161  RH  032%=      5-min Rain = 0
KCA1 112313Z 15013KT 36/16 A2997 RMK A01 T03560157  RH  031%=      5-min Rain = 0
KCA1 112314Z 15007KT 35/15 A2997 RMK A01 T03530154  RH  030%=      5-min Rain = 0
KCA1 112315Z 16008KT 35/16 A2997 RMK A01 T03520156  RH  031%=      5-min Rain = 0
KCA1 112316Z 16010KT 35/16 A2997 RMK A01 T03520157  RH  031%=      5-min Rain = 0
KCA1 112317Z 17016KT 35/16 A2997 RMK A01 T03530160  RH  032%=      5-min Rain = 0
KCA1 112318Z 16013KT 35/16 A2997 RMK A01 T03530159  RH  031%=      5-min Rain = 0
KCA1 112319Z 17013G18KT 35/16 A2997 RMK A01 T03520160  RH  032%=      5-min Rain = 0
KCA1 112320Z 16014KT 35/16 A2997 RMK A01 T03520156  RH  031%=      5-min Rain = 0
KCA1 112321Z 16015KT 35/15 A2997 RMK A01 T03510154  RH  031%=      5-min Rain = 0
KCA1 112322Z 17010KT 35/15 A2997 RMK A01 T03490154  RH  031%=      5-min Rain = 0
KCA1 112323Z 17010G15KT 35/16 A2997 RMK A01 T03500160  RH  032%=      5-min Rain = 0
KCA1 112324Z 17010KT 35/16 A2997 RMK A01 T03520159  RH  032%=      5-min Rain = 0
KCA1 112325Z 17010KT 35/16 A2997 RMK A01 T03520160  RH  032%=      5-min Rain = 0
KCA1 112326Z 18009KT 35/16 A2997 RMK A01 T03520163  RH  033%=      5-min Rain = 0
KCA1 112327Z 18012KT 35/16 A2997 RMK A01 T03520161  RH  032%=      5-min Rain = 0
KCA1 112328Z 18011KT 35/16 A2997 RMK A01 T03520158  RH  032%=      5-min Rain = 0
KCA1 112329Z 18011KT 35/16 A2997 RMK A01 T03520159  RH  032%=      5-min Rain = 0
KCA1 112330Z 17011KT 35/15 A2997 RMK A01 T03520154  RH  031%=      5-min Rain = 0
KCA1 112331Z 17012KT 35/16 A2997 RMK A01 T03510156  RH  031%=      5-min Rain = 0
KCA1 112332Z 18011KT 35/16 A2997 RMK A01 T03510157  RH  032%=      5-min Rain = 0
KCA1 112333Z 18008KT 35/16 A2997 RMK A01 T03510160  RH  032%=      5-min Rain = 0
KCA1 112334Z 17009G15KT 35/16 A2997 RMK A01 T03530161  RH  032%=      5-min Rain = 0
KCA1 112335Z 16013KT 35/16 A2997 RMK A01 T03540157  RH  031%=      5-min Rain = 0
KCA1 112336Z 16011KT 35/16 A2997 RMK A01 T03530155  RH  031%=      5-min Rain = 0
KCA1 112337Z 16013KT 35/15 A2997 RMK A01 T03520154  RH  031%=      5-min Rain = 0
KCA1 112338Z 16014KT 35/15 A2997 RMK A01 T03510153  RH  031%=      5-min Rain = 0
KCA1 112339Z 17013KT 35/16 A2997 RMK A01 T03510156  RH  031%=      5-min Rain = 0
KCA1 112340Z 17011KT 35/16 A2997 RMK A01 T03510157  RH  032%=      5-min Rain = 0
KCA1 112341Z 16013KT 35/16 A2997 RMK A01 T03510156  RH  031%=      5-min Rain = 0
KCA1 112342Z 16012KT 35/16 A2997 RMK A01 T03520156  RH  031%=      5-min Rain = 0
KCA1 112343Z 17011KT 35/16 A2997 RMK A01 T03520158  RH  031%=      5-min Rain = 0
KCA1 112344Z 16013KT 35/16 A2997 RMK A01 T03520159  RH  032%=      5-min Rain = 0
KCA1 112345Z 16014KT 35/16 A2997 RMK A01 T03510159  RH  032%=      5-min Rain = 0
KCA1 112346Z 13014KT 35/16 A2997 RMK A01 T03490158  RH  032%=      5-min Rain = 0
KCA1 112347Z 14013G18KT 35/16 A2997 RMK A01 T03480160  RH  033%=      5-min Rain = 0
KCA1 112348Z 14015KT 35/16 A2997 RMK A01 T03480161  RH  033%=      5-min Rain = 0
KCA1 112349Z 14018KT 35/16 A2997 RMK A01 T03460156  RH  032%=      5-min Rain = 0
KCA1 112350Z 14014KT 34/16 A2997 RMK A01 T03430157  RH  033%=      5-min Rain = 0
KCA1 112351Z 14013KT 34/16 A2997 RMK A01 T03400157  RH  033%=      5-min Rain = 0
KCA1 112352Z 15010KT 34/16 A2997 RMK A01 T03380158  RH  034%=      5-min Rain = 0
KCA1 112353Z 15012KT 34/16 A2997 RMK A01 T03360158  RH  034%=      5-min Rain = 0
KCA1 112354Z 15012KT 33/16 A2997 RMK A01 T03340157  RH  035%=      5-min Rain = 0
KCA1 112355Z 15012KT 33/16 A2997 RMK A01 T03330157  RH  035%=      5-min Rain = 0
KCA1 112356Z 15010KT 33/16 A2997 RMK A01 T03320157  RH  035%=      5-min Rain = 0
KCA1 112357Z 16009KT 33/16 A2997 RMK A01 T03320158  RH  035%=      5-min Rain = 0
KCA1 112358Z 16010KT 33/16 A2997 RMK A01 T03330157  RH  035%=      5-min Rain = 0
KCA1 112359Z 15013KT 33/16 A2997 RMK A01 T03340155  RH  034%=      5-min Rain = 0
KCA1 120000Z 16014G19KT 34/15 A2997 RMK A01 T03350154  RH  034%=      5-min Rain = 0
KCA1 120001Z 16015KT 34/15 A2997 RMK A01 T03360152  RH  033%=      5-min Rain = 0
KCA1 120002Z 16015KT 34/15 A2997 RMK A01 T03360153  RH  033%=      5-min Rain = 0
KCA1 120003Z 16013KT 34/15 A2997 RMK A01 T03360152  RH  033%=      5-min Rain = 0
KCA1 120004Z 16013KT 34/15 A2997 RMK A01 T03360153  RH  033%=      5-min Rain = 0
KCA1 120005Z 16012KT 34/16 A2997 RMK A01 T03360155  RH  034%=      5-min Rain = 0
KCA1 120006Z 16013KT 34/15 A2997 RMK A01 T03360154  RH  034%=      5-min Rain = 0
KCA1 120007Z 16013KT 34/15 A2997 RMK A01 T03360154  RH  034%=      5-min Rain = 0
KCA1 120008Z 16013KT 34/15 A2997 RMK A01 T03350154  RH  034%=      5-min Rain = 0
KCA1 120009Z 16010KT 33/16 A2997 RMK A01 T03340156  RH  034%=      5-min Rain = 0
KCA1 120010Z 17010KT 33/16 A2997 RMK A01 T03330158  RH  035%=      5-min Rain = 0
KCA1 120011Z 17011KT 33/16 A2997 RMK A01 T03330157  RH  035%=      5-min Rain = 0
KCA1 120012Z 16012KT 33/16 A2997 RMK A01 T03330156  RH  035%=      5-min Rain = 0
KCA1 120013Z 17011KT 33/16 A2997 RMK A01 T03320155  RH  035%=      5-min Rain = 0
KCA1 120014Z 17011KT 33/16 A2997 RMK A01 T03300155  RH  035%=      5-min Rain = 0
KCA1 120015Z 16011KT 33/16 A2997 RMK A01 T03290156  RH  035%=      5-min Rain = 0
KCA1 120016Z 17010KT 33/16 A2997 RMK A01 T03270155  RH  035%=      5-min Rain = 0
KCA1 120017Z 16010KT 33/16 A2997 RMK A01 T03260156  RH  036%=      5-min Rain = 0
KCA1 120018Z 16011KT 33/16 A2997 RMK A01 T03250155  RH  036%=      5-min Rain = 0
KCA1 120019Z 16009KT 32/16 A2997 RMK A01 T03240156  RH  036%=      5-min Rain = 0
KCA1 120020Z 15011KT 32/16 A2997 RMK A01 T03240157  RH  037%=      5-min Rain = 0
KCA1 120021Z 15010KT 33/16 A2997 RMK A01 T03250157  RH  036%=      5-min Rain = 0
KCA1 120022Z 15009KT 33/16 A2997 RMK A01 T03260156  RH  036%=      5-min Rain = 0
KCA1 120023Z 15010KT 33/16 A2997 RMK A01 T03280157  RH  036%=      5-min Rain = 0
KCA1 120024Z 15008KT 33/16 A2997 RMK A01 T03290158  RH  036%=      5-min Rain = 0
KCA1 120025Z 15008KT 33/16 A2997 RMK A01 T03300160  RH  036%=      5-min Rain = 0
KCA1 120026Z 15009KT 33/16 A2997 RMK A01 T03310159  RH  036%=      5-min Rain = 0
KCA1 120027Z 14007KT 33/16 A2997 RMK A01 T03320162  RH  036%=      5-min Rain = 0
KCA1 120028Z 14009KT 33/16 A2997 RMK A01 T03330161  RH  036%=      5-min Rain = 0
KCA1 120029Z 15009KT 33/16 A2997 RMK A01 T03330160  RH  036%=      5-min Rain = 0
KCA1 120030Z 14009KT 33/16 A2997 RMK A01 T03330161  RH  036%=      5-min Rain = 0
KCA1 120031Z 15010KT 33/16 A2997 RMK A01 T03330162  RH  036%=      5-min Rain = 0
KCA1 120032Z 16012KT 33/16 A2997 RMK A01 T03330159  RH  035%=      5-min Rain = 0
KCA1 120033Z 16010KT 33/16 A2997 RMK A01 T03330159  RH  035%=      5-min Rain = 0
KCA1 120034Z 15009KT 33/16 A2997 RMK A01 T03320161  RH  036%=      5-min Rain = 0
KCA1 120035Z 16011KT 33/16 A2997 RMK A01 T03320158  RH  035%=      5-min Rain = 0
KCA1 120036Z 16008KT 33/16 A2997 RMK A01 T03320159  RH  035%=      5-min Rain = 0
KCA1 120037Z 15007KT 33/16 A2997 RMK A01 T03320161  RH  036%=      5-min Rain = 0
KCA1 120038Z 16010KT 33/16 A2997 RMK A01 T03310159  RH  036%=      5-min Rain = 0
KCA1 120039Z 15008KT 33/16 A2997 RMK A01 T03310158  RH  035%=      5-min Rain = 0
KCA1 120040Z 15009KT 33/16 A2997 RMK A01 T03320159  RH  036%=      5-min Rain = 0
KCA1 120041Z 15011KT 33/16 A2997 RMK A01 T03320159  RH  036%=      5-min Rain = 0
KCA1 120042Z 15010KT 33/16 A2997 RMK A01 T03310159  RH  036%=      5-min Rain = 0
KCA1 120043Z 15011KT 33/16 A2997 RMK A01 T03310157  RH  035%=      5-min Rain = 0
KCA1 120044Z 15009KT 33/16 A2997 RMK A01 T03310158  RH  035%=      5-min Rain = 0
KCA1 120045Z 15010KT 33/16 A2997 RMK A01 T03310159  RH  036%=      5-min Rain = 0
KCA1 120046Z 14010KT 33/16 A2997 RMK A01 T03310159  RH  036%=      5-min Rain = 0
KCA1 120047Z 15011KT 33/16 A2997 RMK A01 T03300157  RH  035%=      5-min Rain = 0
KCA1 120048Z 14011KT 33/16 A2997 RMK A01 T03300158  RH  036%=      5-min Rain = 0
KCA1 120049Z 14010KT 33/16 A2997 RMK A01 T03300158  RH  036%=      5-min Rain = 0
KCA1 120050Z 15010KT 33/16 A2997 RMK A01 T03290160  RH  036%=      5-min Rain = 0
KCA1 120051Z 15012KT 33/16 A2998 RMK A01 T03290158  RH  036%=      5-min Rain = 0
KCA1 120052Z 15012KT 33/16 A2998 RMK A01 T03290155  RH  035%=      5-min Rain = 0
KCA1 120053Z 15010KT 33/16 A2998 RMK A01 T03290155  RH  035%=      5-min Rain = 0
KCA1 120054Z 15010KT 33/16 A2998 RMK A01 T03290156  RH  035%=      5-min Rain = 0
KCA1 120055Z 14009KT 33/16 A2998 RMK A01 T03290157  RH  036%=      5-min Rain = 0
KCA1 120056Z 14009KT 33/16 A2998 RMK A01 T03290157  RH  036%=      5-min Rain = 0
KCA1 120057Z 15010KT 33/16 A2998 RMK A01 T03280158  RH  036%=      5-min Rain = 0
KCA1 120058Z 15008KT 33/16 A2998 RMK A01 T03280158  RH  036%=      5-min Rain = 0
KCA1 120059Z 15008KT 33/16 A2998 RMK A01 T03270159  RH  036%=      5-min Rain = 0
KCA1 120100Z 15007KT 33/16 A2998 RMK A01 T03270160  RH  037%=      5-min Rain = 0
KCA1 120101Z 15008KT 33/16 A2998 RMK A01 T03260160  RH  037%=      5-min Rain = 0
KCA1 120102Z 16007KT 33/16 A2998 RMK A01 T03250159  RH  037%=      5-min Rain = 0
KCA1 120103Z 16006KT 33/16 A2998 RMK A01 T03250161  RH  037%=      5-min Rain = 0
KCA1 120104Z 16007KT 32/16 A2998 RMK A01 T03240160  RH  037%=      5-min Rain = 0
KCA1 120105Z 16007KT 32/16 A2998 RMK A01 T03240158  RH  037%=      5-min Rain = 0
KCA1 120106Z 16008KT 32/16 A2998 RMK A01 T03240159  RH  037%=      5-min Rain = 0
KCA1 120107Z 16007KT 32/16 A2998 RMK A01 T03230159  RH  037%=      5-min Rain = 0
KCA1 120108Z 17007KT 32/16 A2998 RMK A01 T03220160  RH  038%=      5-min Rain = 0
KCA1 120109Z 16007KT 32/16 A2998 RMK A01 T03220159  RH  038%=      5-min Rain = 0
KCA1 120110Z 16007KT 32/16 A2998 RMK A01 T03210160  RH  038%=      5-min Rain = 0
KCA1 120111Z 16007KT 32/16 A2998 RMK A01 T03200160  RH  038%=      5-min Rain = 0
KCA1 120112Z 16007KT 32/16 A2998 RMK A01 T03200160  RH  038%=      5-min Rain = 0
KCA1 120113Z 16008KT 32/16 A2998 RMK A01 T03190160  RH  038%=      5-min Rain = 0
KCA1 120114Z 18008KT 32/16 A2998 RMK A01 T03180158  RH  038%=      5-min Rain = 0
KCA1 120115Z 17009KT 32/16 A2998 RMK A01 T03180156  RH  038%=      5-min Rain = 0
KCA1 120116Z 16009KT 32/16 A2998 RMK A01 T03180155  RH  037%=      5-min Rain = 0
KCA1 120117Z 16010KT 32/15 A2998 RMK A01 T03180154  RH  037%=      5-min Rain = 0
KCA1 120118Z 16009KT 32/15 A2998 RMK A01 T03180152  RH  037%=      5-min Rain = 0
KCA1 120119Z 16009KT 32/15 A2998 RMK A01 T03180153  RH  037%=      5-min Rain = 0
KCA1 120120Z 15008KT 32/15 A2998 RMK A01 T03180154  RH  037%=      5-min Rain = 0
KCA1 120121Z 16007KT 32/16 A2998 RMK A01 T03170155  RH  038%=      5-min Rain = 0
KCA1 120122Z 15008KT 32/16 A2998 RMK A01 T03160156  RH  038%=      5-min Rain = 0
KCA1 120123Z 15008KT 31/16 A2998 RMK A01 T03140156  RH  038%=      5-min Rain = 0
KCA1 120124Z 15007KT 31/16 A2998 RMK A01 T03130155  RH  038%=      5-min Rain = 0
KCA1 120125Z 15008KT 31/16 A2998 RMK A01 T03130155  RH  038%=      5-min Rain = 0
KCA1 120126Z 15008KT 31/15 A2998 RMK A01 T03130154  RH  038%=      5-min Rain = 0
KCA1 120127Z 15008KT 31/15 A2998 RMK A01 T03120154  RH  038%=      5-min Rain = 0
KCA1 120128Z 15008KT 31/15 A2998 RMK A01 T03130154  RH  038%=      5-min Rain = 0
KCA1 120129Z 14008KT 31/16 A2998 RMK A01 T03120155  RH  039%=      5-min Rain = 0
KCA1 120130Z 14009KT 31/16 A2998 RMK A01 T03120155  RH  039%=      5-min Rain = 0
KCA1 120131Z 14008KT 31/15 A2998 RMK A01 T03120154  RH  039%=      5-min Rain = 0
KCA1 120132Z 14008KT 31/16 A2998 RMK A01 T03110155  RH  039%=      5-min Rain = 0
KCA1 120133Z 14009KT 31/16 A2998 RMK A01 T03110155  RH  039%=      5-min Rain = 0
KCA1 120134Z 14009KT 31/15 A2998 RMK A01 T03100154  RH  039%=      5-min Rain = 0
KCA1 120135Z 14009KT 31/15 A2998 RMK A01 T03100154  RH  039%=      5-min Rain = 0
KCA1 120136Z 14008KT 31/15 A2998 RMK A01 T03100154  RH  039%=      5-min Rain = 0
KCA1 120137Z 14008KT 31/15 A2998 RMK A01 T03100154  RH  039%=      5-min Rain = 0
KCA1 120138Z 14008KT 31/15 A2998 RMK A01 T03090154  RH  039%=      5-min Rain = 0
KCA1 120139Z 14007KT 31/15 A2998 RMK A01 T03080154  RH  039%=      5-min Rain = 0
KCA1 120140Z 14007KT 31/16 A2998 RMK A01 T03080155  RH  039%=      5-min Rain = 0
KCA1 120141Z 14008KT 31/16 A2998 RMK A01 T03080155  RH  040%=      5-min Rain = 0
KCA1 120142Z 14007KT 31/15 A2998 RMK A01 T03070154  RH  040%=      5-min Rain = 0
KCA1 120143Z 14007KT 31/16 A2998 RMK A01 T03070155  RH  040%=      5-min Rain = 0
KCA1 120144Z 14007KT 31/16 A2998 RMK A01 T03060155  RH  040%=      5-min Rain = 0
KCA1 120145Z 14007KT 31/16 A2998 RMK A01 T03050156  RH  040%=      5-min Rain = 0
KCA1 120146Z 14007KT 30/16 A2998 RMK A01 T03040156  RH  041%=      5-min Rain = 0
KCA1 120147Z 14007KT 30/16 A2998 RMK A01 T03030157  RH  041%=      5-min Rain = 0
KCA1 120148Z 14007KT 30/16 A2998 RMK A01 T03020157  RH  041%=      5-min Rain = 0
KCA1 120149Z 14007KT 30/16 A2998 RMK A01 T03020157  RH  042%=      5-min Rain = 0
KCA1 120150Z 14007KT 30/16 A2999 RMK A01 T03010157  RH  042%=      5-min Rain = 0
KCA1 120151Z 14007KT 30/16 A2999 RMK A01 T03000157  RH  042%=      5-min Rain = 0
KCA1 120152Z 14007KT 30/16 A2999 RMK A01 T02990157  RH  042%=      5-min Rain = 0
KCA1 120153Z 14007KT 30/16 A2999 RMK A01 T02990158  RH  042%=      5-min Rain = 0
KCA1 120154Z 14007KT 30/16 A2999 RMK A01 T02980158  RH  043%=      5-min Rain = 0
KCA1 120155Z 14007KT 30/16 A2999 RMK A01 T02970157  RH  043%=      5-min Rain = 0
KCA1 120156Z 14007KT 30/16 A2999 RMK A01 T02970158  RH  043%=      5-min Rain = 0
KCA1 120157Z 14007KT 30/16 A2999 RMK A01 T02960158  RH  043%=      5-min Rain = 0
KCA1 120158Z 13007KT 30/16 A2999 RMK A01 T02950158  RH  043%=      5-min Rain = 0
KCA1 120159Z 13008KT 30/16 A2999 RMK A01 T02950158  RH  043%=      5-min Rain = 0
KCA1 120200Z 13007KT 30/16 A2999 RMK A01 T02950158  RH  043%=      5-min Rain = 0
KCA1 120201Z 13007KT 29/16 A2999 RMK A01 T02940158  RH  044%=      5-min Rain = 0
KCA1 120202Z 13007KT 29/16 A2999 RMK A01 T02930157  RH  044%=      5-min Rain = 0
KCA1 120203Z 13008KT 29/16 A2999 RMK A01 T02930158  RH  044%=      5-min Rain = 0
KCA1 120204Z 13008KT 29/16 A2999 RMK A01 T02930157  RH  044%=      5-min Rain = 0
KCA1 120205Z 13008KT 29/16 A2999 RMK A01 T02930158  RH  044%=      5-min Rain = 0
KCA1 120206Z 13008KT 29/16 A2999 RMK A01 T02930157  RH  044%=      5-min Rain = 0
KCA1 120207Z 13007KT 29/16 A2999 RMK A01 T02930157  RH  044%=      5-min Rain = 0
KCA1 120208Z 13008KT 29/16 A2999 RMK A01 T02920157  RH  044%=      5-min Rain = 0
KCA1 120209Z 13007KT 29/16 A2999 RMK A01 T02920157  RH  044%=      5-min Rain = 0
KCA1 120210Z 13007KT 29/16 A2999 RMK A01 T02920157  RH  044%=      5-min Rain = 0
KCA1 120211Z 13008KT 29/16 A2999 RMK A01 T02910157  RH  044%=      5-min Rain = 0
KCA1 120212Z 13007KT 29/16 A30 RMK A01 T02910157  RH  044%=      5-min Rain = 0
KCA1 120213Z 13008KT 29/16 A30 RMK A01 T02910157  RH  044%=      5-min Rain = 0
KCA1 120214Z 14008KT 29/16 A30 RMK A01 T02910157  RH  044%=      5-min Rain = 0
KCA1 120215Z 13008KT 29/16 A30 RMK A01 T02910157  RH  044%=      5-min Rain = 0
KCA1 120216Z 13007KT 29/16 A30 RMK A01 T02910157  RH  044%=      5-min Rain = 0
KCA1 120217Z 13007KT 29/16 A30 RMK A01 T02910157  RH  044%=      5-min Rain = 0
KCA1 120218Z 13007KT 29/16 A30 RMK A01 T02910158  RH  045%=      5-min Rain = 0
KCA1 120219Z 13007KT 29/16 A30 RMK A01 T02900158  RH  045%=      5-min Rain = 0
KCA1 120220Z 13007KT 29/16 A30 RMK A01 T02890158  RH  045%=      5-min Rain = 0
KCA1 120221Z 13007KT 29/16 A30 RMK A01 T02880158  RH  045%=      5-min Rain = 0
KCA1 120222Z 13007KT 29/16 A30 RMK A01 T02870158  RH  046%=      5-min Rain = 0
KCA1 120223Z 13006KT 29/16 A30 RMK A01 T02860158  RH  046%=      5-min Rain = 0
KCA1 120224Z 13006KT 29/16 A30 RMK A01 T02850158  RH  046%=      5-min Rain = 0
KCA1 120225Z 13006KT 28/16 A30 RMK A01 T02840158  RH  046%=      5-min Rain = 0
KCA1 120226Z 13006KT 28/16 A30 RMK A01 T02840158  RH  047%=      5-min Rain = 0
KCA1 120227Z 13006KT 28/16 A30 RMK A01 T02830159  RH  047%=      5-min Rain = 0
KCA1 120228Z 13006KT 28/16 A30 RMK A01 T02820159  RH  047%=      5-min Rain = 0
KCA1 120229Z 13006KT 28/16 A30 RMK A01 T02810158  RH  047%=      5-min Rain = 0
KCA1 120230Z 13006KT 28/16 A30 RMK A01 T02810159  RH  047%=      5-min Rain = 0
KCA1 120231Z 13007KT 28/16 A30 RMK A01 T02800159  RH  048%=      5-min Rain = 0
KCA1 120232Z 13007KT 28/16 A30 RMK A01 T02790159  RH  048%=      5-min Rain = 0
KCA1 120233Z 13007KT 28/16 A30 RMK A01 T02790158  RH  048%=      5-min Rain = 0
KCA1 120234Z 13007KT 28/16 A30 RMK A01 T02780158  RH  048%=      5-min Rain = 0
KCA1 120235Z 13007KT 28/16 A30 RMK A01 T02780158  RH  048%=      5-min Rain = 0
KCA1 120236Z 13007KT 28/16 A30 RMK A01 T02780159  RH  048%=      5-min Rain = 0
KCA1 120237Z 13007KT 28/16 A30 RMK A01 T02780158  RH  048%=      5-min Rain = 0
KCA1 120238Z 13007KT 28/16 A30 RMK A01 T02780158  RH  048%=      5-min Rain = 0
KCA1 120239Z 12007KT 28/16 A30 RMK A01 T02780159  RH  048%=      5-min Rain = 0
KCA1 120240Z 12007KT 28/16 A30 RMK A01 T02780159  RH  048%=      5-min Rain = 0
KCA1 120241Z 12008KT 28/16 A30 RMK A01 T02780159  RH  048%=      5-min Rain = 0
KCA1 120242Z 12008KT 28/16 A30 RMK A01 T02780159  RH  048%=      5-min Rain = 0
KCA1 120243Z 12007KT 28/16 A3001 RMK A01 T02780159  RH  048%=      5-min Rain = 0
KCA1 120244Z 12007KT 28/16 A3001 RMK A01 T02770159  RH  049%=      5-min Rain = 0
KCA1 120245Z 12007KT 28/16 A3001 RMK A01 T02770160  RH  049%=      5-min Rain = 0
KCA1 120246Z 12007KT 28/16 A3001 RMK A01 T02760160  RH  049%=      5-min Rain = 0
KCA1 120247Z 11007KT 28/16 A3001 RMK A01 T02750160  RH  049%=      5-min Rain = 0
KCA1 120248Z 11008KT 27/16 A3001 RMK A01 T02740160  RH  050%=      5-min Rain = 0
KCA1 120249Z 11008KT 27/16 A3001 RMK A01 T02730160  RH  050%=      5-min Rain = 0
KCA1 120250Z 11008KT 27/16 A3001 RMK A01 T02720160  RH  050%=      5-min Rain = 0
KCA1 120251Z 11009KT 27/16 A3001 RMK A01 T02710160  RH  051%=      5-min Rain = 0
KCA1 120252Z 11008KT 27/16 A3001 RMK A01 T02700160  RH  051%=      5-min Rain = 0
KCA1 120253Z 12008KT 27/16 A3001 RMK A01 T02700160  RH  051%=      5-min Rain = 0
KCA1 120254Z 12008KT 27/16 A3001 RMK A01 T02700160  RH  051%=      5-min Rain = 0
KCA1 120255Z 12008KT 27/16 A3001 RMK A01 T02700159  RH  051%=      5-min Rain = 0
KCA1 120256Z 11008KT 27/16 A3001 RMK A01 T02700159  RH  051%=      5-min Rain = 0
KCA1 120257Z 12008KT 27/16 A3002 RMK A01 T02710159  RH  050%=      5-min Rain = 0
KCA1 120258Z 11007KT 27/16 A3002 RMK A01 T02720159  RH  050%=      5-min Rain = 0
KCA1 120259Z 11007KT 27/16 A3002 RMK A01 T02720160  RH  050%=      5-min Rain = 0
KCA1 120300Z 11008KT 27/16 A3002 RMK A01 T02720161  RH  051%=      5-min Rain = 0
KCA1 120301Z 11008KT 27/16 A3002 RMK A01 T02710161  RH  051%=      5-min Rain = 0
KCA1 120302Z 12008KT 27/16 A3002 RMK A01 T02700160  RH  051%=      5-min Rain = 0
KCA1 120303Z 12008KT 27/16 A3002 RMK A01 T02700160  RH  051%=      5-min Rain = 0
KCA1 120304Z 12007KT 27/16 A3002 RMK A01 T02700159  RH  051%=      5-min Rain = 0
KCA1 120305Z 12007KT 27/16 A3002 RMK A01 T02700159  RH  051%=      5-min Rain = 0
KCA1 120306Z 11007KT 27/16 A3002 RMK A01 T02700160  RH  051%=      5-min Rain = 0
KCA1 120307Z 11007KT 27/16 A3002 RMK A01 T02690161  RH  051%=      5-min Rain = 0
KCA1 120308Z 11007KT 27/16 A3002 RMK A01 T02680161  RH  052%=      5-min Rain = 0
KCA1 120309Z 11007KT 27/16 A3002 RMK A01 T02660161  RH  052%=      5-min Rain = 0
KCA1 120310Z 11007KT 27/16 A3002 RMK A01 T02650162  RH  053%=      5-min Rain = 0
KCA1 120311Z 11007KT 26/16 A3002 RMK A01 T02640162  RH  053%=      5-min Rain = 0
KCA1 120312Z 11007KT 26/16 A3002 RMK A01 T02630161  RH  053%=      5-min Rain = 0
KCA1 120313Z 11007KT 26/16 A3002 RMK A01 T02630162  RH  054%=      5-min Rain = 0
KCA1 120314Z 12008KT 26/16 A3002 RMK A01 T02630161  RH  054%=      5-min Rain = 0
KCA1 120315Z 11008KT 26/16 A3003 RMK A01 T02630161  RH  054%=      5-min Rain = 0
KCA1 120316Z 12007KT 26/16 A3003 RMK A01 T02630160  RH  053%=      5-min Rain = 0
KCA1 120317Z 11008KT 26/16 A3003 RMK A01 T02640161  RH  053%=      5-min Rain = 0
KCA1 120318Z 11008KT 27/16 A3003 RMK A01 T02650161  RH  053%=      5-min Rain = 0
KCA1 120319Z 11007KT 27/16 A3003 RMK A01 T02650161  RH  053%=      5-min Rain = 0
KCA1 120320Z 11008KT 26/16 A3003 RMK A01 T02640161  RH  053%=      5-min Rain = 0
KCA1 120321Z 12008KT 26/16 A3003 RMK A01 T02640161  RH  053%=      5-min Rain = 0
KCA1 120322Z 12008KT 26/16 A3003 RMK A01 T02640161  RH  053%=      5-min Rain = 0
KCA1 120323Z 11008KT 26/16 A3003 RMK A01 T02640161  RH  053%=      5-min Rain = 0
KCA1 120324Z 12008KT 27/16 A3003 RMK A01 T02650161  RH  053%=      5-min Rain = 0
KCA1 120325Z 11008KT 26/16 A3003 RMK A01 T02640161  RH  053%=      5-min Rain = 0
KCA1 120326Z 11008KT 26/16 A3003 RMK A01 T02640161  RH  053%=      5-min Rain = 0
KCA1 120327Z 11008KT 26/16 A3003 RMK A01 T02630161  RH  053%=      5-min Rain = 0
KCA1 120328Z 11008KT 26/16 A3003 RMK A01 T02630162  RH  054%=      5-min Rain = 0
KCA1 120329Z 11008KT 26/16 A3003 RMK A01 T02630161  RH  054%=      5-min Rain = 0
KCA1 120330Z 11008KT 26/16 A3003 RMK A01 T02620161  RH  054%=      5-min Rain = 0
KCA1 120331Z 11008KT 26/16 A3003 RMK A01 T02620162  RH  054%=      5-min Rain = 0
KCA1 120332Z 11008KT 26/16 A3004 RMK A01 T02620162  RH  054%=      5-min Rain = 0
KCA1 120333Z 11008KT 26/16 A3004 RMK A01 T02610162  RH  054%=      5-min Rain = 0
KCA1 120334Z 11008KT 26/16 A3004 RMK A01 T02610161  RH  054%=      5-min Rain = 0
KCA1 120335Z 11008KT 26/16 A3004 RMK A01 T02610161  RH  054%=      5-min Rain = 0
KCA1 120336Z 11008KT 26/16 A3004 RMK A01 T02610162  RH  054%=      5-min Rain = 0
KCA1 120337Z 11008KT 26/16 A3004 RMK A01 T02600162  RH  054%=      5-min Rain = 0
KCA1 120338Z 11008KT 26/16 A3004 RMK A01 T02600162  RH  055%=      5-min Rain = 0
KCA1 120339Z 11008KT 26/16 A3004 RMK A01 T02600162  RH  055%=      5-min Rain = 0
KCA1 120340Z 11009KT 26/16 A3004 RMK A01 T02600161  RH  054%=      5-min Rain = 0
KCA1 120341Z 11008KT 26/16 A3004 RMK A01 T02610161  RH  054%=      5-min Rain = 0
KCA1 120342Z 11007KT 26/16 A3004 RMK A01 T02610161  RH  054%=      5-min Rain = 0
KCA1 120343Z 11008KT 26/16 A3004 RMK A01 T02610162  RH  054%=      5-min Rain = 0
KCA1 120344Z 11008KT 26/16 A3004 RMK A01 T02610161  RH  054%=      5-min Rain = 0
KCA1 120345Z 11008KT 26/16 A3004 RMK A01 T02610161  RH  054%=      5-min Rain = 0
KCA1 120346Z 11008KT 26/16 A3004 RMK A01 T02610161  RH  054%=      5-min Rain = 0
KCA1 120347Z 11008KT 26/16 A3004 RMK A01 T02610161  RH  054%=      5-min Rain = 0
KCA1 120348Z 12008KT 26/16 A3004 RMK A01 T02610162  RH  054%=      5-min Rain = 0
KCA1 120349Z 11008KT 26/16 A3004 RMK A01 T02610161  RH  054%=      5-min Rain = 0
KCA1 120350Z 11008KT 26/16 A3004 RMK A01 T02610161  RH  054%=      5-min Rain = 0
KCA1 120351Z 11008KT 26/16 A3004 RMK A01 T02610162  RH  054%=      5-min Rain = 0
KCA1 120352Z 11008KT 26/16 A3004 RMK A01 T02600162  RH  055%=      5-min Rain = 0
KCA1 120353Z 11008KT 26/16 A3004 RMK A01 T02600162  RH  055%=      5-min Rain = 0
KCA1 120354Z 11008KT 26/16 A3004 RMK A01 T02590163  RH  055%=      5-min Rain = 0
KCA1 120355Z 11008KT 26/16 A3004 RMK A01 T02590163  RH  055%=      5-min Rain = 0
KCA1 120356Z 11008KT 26/16 A3004 RMK A01 T02590163  RH  055%=      5-min Rain = 0
KCA1 120357Z 11008KT 26/16 A3004 RMK A01 T02580162  RH  055%=      5-min Rain = 0
KCA1 120358Z 11008KT 26/16 A3004 RMK A01 T02580162  RH  055%=      5-min Rain = 0
KCA1 120359Z 11008KT 26/16 A3004 RMK A01 T02580162  RH  055%=      5-min Rain = 0
KCA1 120400Z 11008KT 26/16 A3004 RMK A01 T02580163  RH  056%=      5-min Rain = 0
KCA1 120401Z 11008KT 26/16 A3004 RMK A01 T02580163  RH  056%=      5-min Rain = 0
KCA1 120402Z 11009KT 26/16 A3004 RMK A01 T02580163  RH  056%=      5-min Rain = 0
KCA1 120403Z 11008KT 26/16 A3004 RMK A01 T02580163  RH  056%=      5-min Rain = 0
KCA1 120404Z 11008KT 26/16 A3004 RMK A01 T02580162  RH  056%=      5-min Rain = 0
KCA1 120405Z 11008KT 26/16 A3004 RMK A01 T02580162  RH  055%=      5-min Rain = 0
KCA1 120406Z 11008KT 26/16 A3004 RMK A01 T02580162  RH  055%=      5-min Rain = 0
KCA1 120407Z 11009KT 26/16 A3004 RMK A01 T02580162  RH  055%=      5-min Rain = 0
KCA1 120408Z 11008KT 26/16 A3004 RMK A01 T02580162  RH  055%=      5-min Rain = 0
KCA1 120409Z 11009KT 26/16 A3004 RMK A01 T02590162  RH  055%=      5-min Rain = 0
KCA1 120410Z 11009KT 26/16 A3004 RMK A01 T02580162  RH  055%=      5-min Rain = 0
KCA1 120411Z 11009KT 26/16 A3004 RMK A01 T02580162  RH  055%=      5-min Rain = 0
KCA1 120412Z 11009KT 26/16 A3004 RMK A01 T02580163  RH  056%=      5-min Rain = 0
KCA1 120413Z 10009KT 26/16 A3004 RMK A01 T02580163  RH  056%=      5-min Rain = 0
KCA1 120414Z 10009KT 26/16 A3004 RMK A01 T02570162  RH  056%=      5-min Rain = 0
KCA1 120415Z 10009KT 26/16 A3004 RMK A01 T02570163  RH  056%=      5-min Rain = 0
KCA1 120416Z 11009KT 26/16 A3004 RMK A01 T02570162  RH  056%=      5-min Rain = 0
KCA1 120417Z 10008KT 26/16 A3004 RMK A01 T02570162  RH  056%=      5-min Rain = 0
KCA1 120418Z 10009KT 26/16 A3004 RMK A01 T02570162  RH  056%=      5-min Rain = 0
KCA1 120419Z 10009KT 26/16 A3004 RMK A01 T02570162  RH  056%=      5-min Rain = 0
KCA1 120420Z 11009KT 26/16 A3004 RMK A01 T02570163  RH  056%=      5-min Rain = 0
KCA1 120421Z 10009KT 26/16 A3004 RMK A01 T02570163  RH  056%=      5-min Rain = 0
KCA1 120422Z 11009KT 26/16 A3004 RMK A01 T02570163  RH  056%=      5-min Rain = 0
KCA1 120423Z 10009KT 26/16 A3004 RMK A01 T02570162  RH  056%=      5-min Rain = 0
KCA1 120424Z 11009KT 26/16 A3004 RMK A01 T02570162  RH  056%=      5-min Rain = 0
KCA1 120425Z 10009KT 26/16 A3004 RMK A01 T02570162  RH  056%=      5-min Rain = 0
KCA1 120426Z 09010KT 26/16 A3004 RMK A01 T02580163  RH  056%=      5-min Rain = 0
KCA1 120427Z 09010KT 26/16 A3004 RMK A01 T02580164  RH  056%=      5-min Rain = 0
KCA1 120428Z 10010KT 26/16 A3004 RMK A01 T02570164  RH  056%=      5-min Rain = 0
KCA1 120429Z 10010KT 26/16 A3004 RMK A01 T02570164  RH  056%=      5-min Rain = 0
KCA1 120430Z 10010KT 26/16 A3004 RMK A01 T02570164  RH  057%=      5-min Rain = 0
KCA1 120431Z 10010KT 26/16 A3004 RMK A01 T02560164  RH  057%=      5-min Rain = 0
KCA1 120432Z 10010KT 26/16 A3004 RMK A01 T02560164  RH  057%=      5-min Rain = 0
KCA1 120433Z 10010KT 26/16 A3004 RMK A01 T02560164  RH  057%=      5-min Rain = 0
KCA1 120434Z 10010KT 26/16 A3004 RMK A01 T02560164  RH  057%=      5-min Rain = 0
KCA1 120435Z 10010KT 26/17 A3004 RMK A01 T02560165  RH  057%=      5-min Rain = 0
KCA1 120436Z 10010KT 26/16 A3004 RMK A01 T02550164  RH  057%=      5-min Rain = 0
KCA1 120437Z 10010KT 26/17 A3004 RMK A01 T02550165  RH  057%=      5-min Rain = 0
KCA1 120438Z 10010KT 26/16 A3004 RMK A01 T02550164  RH  057%=      5-min Rain = 0
KCA1 120439Z 10010KT 26/16 A3004 RMK A01 T02550164  RH  057%=      5-min Rain = 0
KCA1 120440Z 10010KT 26/16 A3004 RMK A01 T02550164  RH  057%=      5-min Rain = 0
KCA1 120441Z 10009KT 26/16 A3004 RMK A01 T02550164  RH  057%=      5-min Rain = 0
KCA1 120442Z 10009KT 26/16 A3004 RMK A01 T02550164  RH  057%=      5-min Rain = 0
KCA1 120443Z 10010KT 26/17 A3004 RMK A01 T02550165  RH  057%=      5-min Rain = 0
KCA1 120444Z 10009KT 26/17 A3004 RMK A01 T02550165  RH  057%=      5-min Rain = 0
KCA1 120445Z 10009KT 26/17 A3004 RMK A01 T02550165  RH  057%=      5-min Rain = 0
KCA1 120446Z 10010KT 26/16 A3004 RMK A01 T02550164  RH  057%=      5-min Rain = 0
KCA1 120447Z 10009KT 26/16 A3004 RMK A01 T02550164  RH  057%=      5-min Rain = 0
KCA1 120448Z 11009KT 26/16 A3004 RMK A01 T02550164  RH  057%=      5-min Rain = 0
KCA1 120449Z 10010KT 26/16 A3004 RMK A01 T02550164  RH  057%=      5-min Rain = 0
KCA1 120450Z 11010KT 26/16 A3004 RMK A01 T02550164  RH  057%=      5-min Rain = 0
KCA1 120451Z 10009KT 26/16 A3004 RMK A01 T02550164  RH  057%=      5-min Rain = 0
KCA1 120452Z 10009KT 26/16 A3004 RMK A01 T02550164  RH  057%=      5-min Rain = 0
KCA1 120453Z 10009KT 26/16 A3004 RMK A01 T02550164  RH  057%=      5-min Rain = 0
KCA1 120454Z 11009KT 25/17 A3004 RMK A01 T02540165  RH  058%=      5-min Rain = 0
KCA1 120455Z 11009KT 25/17 A3004 RMK A01 T02540165  RH  058%=      5-min Rain = 0
KCA1 120456Z 11009KT 25/17 A3004 RMK A01 T02540165  RH  058%=      5-min Rain = 0
KCA1 120457Z 11009KT 25/16 A3004 RMK A01 T02530164  RH  058%=      5-min Rain = 0
KCA1 120458Z 11009KT 25/17 A3004 RMK A01 T02540165  RH  058%=      5-min Rain = 0
KCA1 120459Z 11009KT 25/16 A3004 RMK A01 T02540164  RH  058%=      5-min Rain = 0

Page generated in 0.0326 seconds.